NOAA Web Site Link Tides and Currents Home Page Transparent placeholder image

PORTS® Data Listing: 8638610 Sewells Point, VA

CO-OPS RAW PORTS DATA

************************      PRELIMINARY DATA      ************************** 

     THIS RAW DATA HAS NOT BEEN SUBJECT TO THE NATIONAL OCEAN SERVICE'S        
     QUALITY CONTROL OR QUALITY ASSURANCE PROCEDURES AND DOES NOT MEET         
     THE CRITERIA AND STANDARDS OF OFFICIAL NATIONAL OCEAN SERVICE             
     DATA.  IT IS RELEASED FOR LIMITED PUBLIC USE AS PRELIMINARY DATA TO       
     BE USED ONLY WITH APPROPRIATE CAUTION.                                    

************************      PRELIMINARY DATA      ************************** 


       CD   -   Calendar date
       T    -   Time
       TZ   -   Timezone
       PW   -   Predicted water level (feet above MLLW)
       OW   -   Observed water level (feet above MLLW)
       WS   -   Wind speed (knots)
       WD   -   Wind direction (degrees true)
       WG   -   Wind gust (knots)
       AT   -   Air temperature (degrees farenheit)
       WT   -   Water temperature (degrees farenheit)
       AP   -   Air pressure (millibars)
       SA   -   Salinty (PSU - Practical Salinity Units)
       SG   -   Specific gravity
       RH   -   Relative humidity
       AG   -   Air gap (feet)
       VI   -   Visibility (nautical miles)

       ** NOTE **
       A variable that has its data fields filled with "9"s, indicates that
       data was not collected for that sample period.
       **********


STATION NAME: Sewells Point (8638610)
****************************************************************************************************
    CD       T    TZ    PW     OW    WS   WD   WG    AT    WT    AP    SA    SG     RH    AG   VI
****************************************************************************************************
2019/05/17 06:48 EDT    2.02   2.84 -999 -999 -999 -99.9  68.4 1012.5 15.0  1.010 -99.9 -99.99 -9.99
2019/05/17 06:54 EDT    2.08   2.86 -999 -999 -999 -99.9  68.5 1012.6 15.0  1.010 -99.9 -99.99 -9.99
2019/05/17 07:00 EDT    2.14   2.92 -999 -999 -999 -99.9  68.4 1012.6 15.1  1.010 -99.9 -99.99 -9.99
2019/05/17 07:06 EDT    2.19   2.96 -999 -999 -999 -99.9  68.5 1012.7 15.2  1.011 -99.9 -99.99 -9.99
2019/05/17 07:12 EDT    2.24   3.02 -999 -999 -999 -99.9  68.4 1012.8 15.3  1.011 -99.9 -99.99 -9.99
2019/05/17 07:18 EDT    2.29   3.07 -999 -999 -999 -99.9  68.5 1012.8 15.2  1.011 -99.9 -99.99 -9.99
2019/05/17 07:24 EDT    2.34   3.10 -999 -999 -999 -99.9  68.5 1012.8 15.2  1.011 -99.9 -99.99 -9.99
2019/05/17 07:30 EDT    2.38   3.13 -999 -999 -999 -99.9  68.5 1012.7 15.3  1.011 -99.9 -99.99 -9.99
2019/05/17 07:36 EDT    2.42   3.18 -999 -999 -999 -99.9  68.5 1012.6 15.3  1.011 -99.9 -99.99 -9.99
2019/05/17 07:42 EDT    2.46   3.21 -999 -999 -999 -99.9  68.4 1012.6 15.3  1.011 -99.9 -99.99 -9.99
2019/05/17 07:48 EDT    2.49   3.26 -999 -999 -999 -99.9  68.4 1012.6 15.3  1.011 -99.9 -99.99 -9.99
2019/05/17 07:54 EDT    2.53   3.26 -999 -999 -999 -99.9  68.5 1012.6 15.2  1.011 -99.9 -99.99 -9.99
2019/05/17 08:00 EDT    2.55   3.28 -999 -999 -999 -99.9  68.5 1012.5 15.2  1.011 -99.9 -99.99 -9.99
2019/05/17 08:06 EDT    2.58   3.30 -999 -999 -999 -99.9  68.5 1012.5 15.2  1.011 -99.9 -99.99 -9.99
2019/05/17 08:12 EDT    2.60   3.32 -999 -999 -999 -99.9  68.4 1012.5 15.2  1.011 -99.9 -99.99 -9.99
2019/05/17 08:18 EDT    2.61   3.32 -999 -999 -999 -99.9  68.5 1012.4 15.2  1.011 -99.9 -99.99 -9.99
2019/05/17 08:24 EDT    2.63   3.33 -999 -999 -999 -99.9  68.5 1012.3 15.2  1.011 -99.9 -99.99 -9.99
2019/05/17 08:30 EDT    2.64   3.33 -999 -999 -999 -99.9  68.5 1012.3 15.2  1.011 -99.9 -99.99 -9.99
2019/05/17 08:36 EDT    2.64   3.33 -999 -999 -999 -99.9  68.5 1012.4 15.2  1.011 -99.9 -99.99 -9.99
2019/05/17 08:42 EDT    2.65   3.32 -999 -999 -999 -99.9  68.4 1012.4 15.4  1.011 -99.9 -99.99 -9.99
2019/05/17 08:48 EDT    2.65   3.31 -999 -999 -999 -99.9  68.4 1012.5 15.3  1.011 -99.9 -99.99 -9.99
2019/05/17 08:54 EDT    2.64   3.30 -999 -999 -999 -99.9  68.4 1012.6 15.3  1.011 -99.9 -99.99 -9.99
2019/05/17 09:00 EDT    2.63   3.29 -999 -999 -999 -99.9  68.4 1012.6 15.4  1.011 -99.9 -99.99 -9.99
2019/05/17 09:06 EDT    2.62   3.27 -999 -999 -999 -99.9  68.4 1012.7 15.4  1.011 -99.9 -99.99 -9.99
2019/05/17 09:12 EDT    2.61   3.26 -999 -999 -999 -99.9  68.4 1012.8 15.4  1.011 -99.9 -99.99 -9.99
2019/05/17 09:18 EDT    2.59   3.24 -999 -999 -999 -99.9  68.4 1012.9 15.4  1.011 -99.9 -99.99 -9.99
2019/05/17 09:24 EDT    2.56   3.22 -999 -999 -999 -99.9  68.4 1013.0 15.4  1.011 -99.9 -99.99 -9.99
2019/05/17 09:30 EDT    2.54   3.20 -999 -999 -999 -99.9  68.4 1013.0 15.4  1.011 -99.9 -99.99 -9.99
2019/05/17 09:36 EDT    2.51   3.17 -999 -999 -999 -99.9  68.4 1013.0 15.3  1.011 -99.9 -99.99 -9.99
2019/05/17 09:42 EDT    2.47   3.14 -999 -999 -999 -99.9  68.4 1012.9 15.3  1.011 -99.9 -99.99 -9.99
2019/05/17 09:48 EDT    2.44   3.10 -999 -999 -999 -99.9  68.5 1012.8 15.2  1.011 -99.9 -99.99 -9.99
2019/05/17 09:54 EDT    2.40   3.06 -999 -999 -999 -99.9  68.4 1012.7 15.3  1.011 -99.9 -99.99 -9.99
2019/05/17 10:00 EDT    2.36   3.03 -999 -999 -999 -99.9  68.4 1012.6 15.5  1.011 -99.9 -99.99 -9.99
2019/05/17 10:06 EDT    2.31   2.98 -999 -999 -999 -99.9  68.2 1012.5 15.8  1.011 -99.9 -99.99 -9.99
2019/05/17 10:12 EDT    2.26   2.94 -999 -999 -999 -99.9  68.2 1012.6 15.8  1.011 -99.9 -99.99 -9.99
2019/05/17 10:18 EDT    2.21   2.88 -999 -999 -999 -99.9  68.2 1012.5 15.9  1.011 -99.9 -99.99 -9.99
2019/05/17 10:24 EDT    2.16   2.84 -999 -999 -999 -99.9  68.2 1012.5 15.8  1.011 -99.9 -99.99 -9.99
2019/05/17 10:30 EDT    2.10   2.79 -999 -999 -999 -99.9  68.0 1012.4 15.9  1.011 -99.9 -99.99 -9.99
2019/05/17 10:36 EDT    2.04   2.74 -999 -999 -999 -99.9  68.2 1012.4 15.7  1.011 -99.9 -99.99 -9.99
2019/05/17 10:42 EDT    1.98   2.68 -999 -999 -999 -99.9  68.2 1012.3 15.6  1.011 -99.9 -99.99 -9.99
2019/05/17 10:48 EDT    1.92   2.62 -999 -999 -999 -99.9  68.4 1012.3 15.5  1.011 -99.9 -99.99 -9.99
2019/05/17 10:54 EDT    1.86   2.54 -999 -999 -999 -99.9  68.4 1012.3 15.5  1.011 -99.9 -99.99 -9.99
2019/05/17 11:00 EDT    1.79   2.47 -999 -999 -999 -99.9  68.4 1012.3 15.5  1.011 -99.9 -99.99 -9.99
2019/05/17 11:06 EDT    1.72   2.41 -999 -999 -999 -99.9  68.4 1012.1 15.5  1.011 -99.9 -99.99 -9.99
2019/05/17 11:12 EDT    1.65   2.33 -999 -999 -999 -99.9  68.4 1012.1 15.5  1.011 -99.9 -99.99 -9.99
2019/05/17 11:18 EDT    1.58   2.27 -999 -999 -999 -99.9  68.4 1012.0 15.5  1.011 -99.9 -99.99 -9.99
2019/05/17 11:24 EDT    1.51   2.19 -999 -999 -999 -99.9  68.5 1011.9 15.4  1.011 -99.9 -99.99 -9.99
2019/05/17 11:30 EDT    1.44   2.11 -999 -999 -999 -99.9  68.4 1011.8 15.5  1.011 -99.9 -99.99 -9.99
2019/05/17 11:36 EDT    1.36   2.04 -999 -999 -999 -99.9  68.5 1011.8 15.4  1.011 -99.9 -99.99 -9.99
2019/05/17 11:42 EDT    1.29   1.97 -999 -999 -999 -99.9  68.2 1011.9 15.7  1.011 -99.9 -99.99 -9.99
2019/05/17 11:48 EDT    1.22   1.90 -999 -999 -999 -99.9  68.2 1011.8 15.7  1.011 -99.9 -99.99 -9.99
2019/05/17 11:54 EDT    1.14   1.83 -999 -999 -999 -99.9  68.2 1011.7 15.7  1.011 -99.9 -99.99 -9.99
2019/05/17 12:00 EDT    1.07   1.76 -999 -999 -999 -99.9  68.2 1011.6 15.8  1.011 -99.9 -99.99 -9.99
2019/05/17 12:06 EDT    1.00   1.71 -999 -999 -999 -99.9  68.4 1011.6 15.7  1.011 -99.9 -99.99 -9.99
2019/05/17 12:12 EDT    0.92   1.62 -999 -999 -999 -99.9  68.4 1011.5 15.6  1.011 -99.9 -99.99 -9.99
2019/05/17 12:18 EDT    0.85   1.58 -999 -999 -999 -99.9  68.4 1011.5 15.6  1.011 -99.9 -99.99 -9.99
2019/05/17 12:24 EDT    0.78   1.49 -999 -999 -999 -99.9  68.5 1011.4 15.5  1.011 -99.9 -99.99 -9.99
2019/05/17 12:30 EDT    0.71   1.42 -999 -999 -999 -99.9  68.4 1011.3 15.6  1.011 -99.9 -99.99 -9.99
2019/05/17 12:36 EDT    0.64   1.37 -999 -999 -999 -99.9  68.4 1011.1 15.6  1.011 -99.9 -99.99 -9.99
2019/05/17 12:42 EDT    0.57   1.30 -999 -999 -999 -99.9  68.4 1011.0 15.6  1.011 -99.9 -99.99 -9.99
2019/05/17 12:48 EDT    0.51   1.26 -999 -999 -999 -99.9  68.4 1010.8 15.6  1.011 -99.9 -99.99 -9.99
2019/05/17 12:54 EDT    0.45   1.15 -999 -999 -999 -99.9  68.5 1010.8 15.5  1.011 -99.9 -99.99 -9.99
2019/05/17 13:00 EDT    0.38   1.13 -999 -999 -999 -99.9  68.5 1010.7 15.7  1.011 -99.9 -99.99 -9.99
2019/05/17 13:06 EDT    0.33   1.08 -999 -999 -999 -99.9  68.7 1010.6 15.6  1.011 -99.9 -99.99 -9.99
2019/05/17 13:12 EDT    0.27   0.99 -999 -999 -999 -99.9  68.7 1010.4 15.6  1.011 -99.9 -99.99 -9.99
2019/05/17 13:18 EDT    0.21   0.95 -999 -999 -999 -99.9  68.9 1010.3 15.5  1.011 -99.9 -99.99 -9.99
2019/05/17 13:24 EDT    0.16   0.90 -999 -999 -999 -99.9  68.9 1010.1 15.6  1.011 -99.9 -99.99 -9.99
2019/05/17 13:30 EDT    0.11   0.85 -999 -999 -999 -99.9  68.7 1010.0 15.6  1.011 -99.9 -99.99 -9.99
2019/05/17 13:36 EDT    0.07   0.81 -999 -999 -999 -99.9  68.9 1009.8 15.6  1.011 -99.9 -99.99 -9.99
2019/05/17 13:42 EDT    0.03   0.77 -999 -999 -999 -99.9  68.9 1009.7 15.6  1.011 -99.9 -99.99 -9.99
2019/05/17 13:48 EDT   -0.01   0.75 -999 -999 -999 -99.9  68.7 1009.6 15.6  1.011 -99.9 -99.99 -9.99
2019/05/17 13:54 EDT   -0.05   0.72 -999 -999 -999 -99.9  68.7 1009.6 15.7  1.011 -99.9 -99.99 -9.99
2019/05/17 14:00 EDT   -0.08   0.66 -999 -999 -999 -99.9  68.9 1009.7 15.6  1.011 -99.9 -99.99 -9.99
2019/05/17 14:06 EDT   -0.11   0.67 -999 -999 -999 -99.9  68.7 1009.7 15.7  1.011 -99.9 -99.99 -9.99
2019/05/17 14:12 EDT   -0.13   0.62 -999 -999 -999 -99.9  68.9 1009.6 15.6  1.011 -99.9 -99.99 -9.99
2019/05/17 14:18 EDT   -0.15   0.62 -999 -999 -999 -99.9  68.7 1009.6 15.7  1.011 -99.9 -99.99 -9.99
2019/05/17 14:24 EDT   -0.17   0.58 -999 -999 -999 -99.9  68.9 1009.5 15.6  1.011 -99.9 -99.99 -9.99
2019/05/17 14:30 EDT   -0.18   0.60 -999 -999 -999 -99.9  68.9 1009.3 15.7  1.011 -99.9 -99.99 -9.99
2019/05/17 14:36 EDT   -0.19   0.57 -999 -999 -999 -99.9  68.9 1009.3 15.7  1.011 -99.9 -99.99 -9.99
2019/05/17 14:42 EDT   -0.19   0.57 -999 -999 -999 -99.9  68.7 1009.4 15.7  1.011 -99.9 -99.99 -9.99
2019/05/17 14:48 EDT   -0.19   0.57 -999 -999 -999 -99.9  68.9 1009.3 15.6  1.011 -99.9 -99.99 -9.99
2019/05/17 14:54 EDT   -0.19   0.55 -999 -999 -999 -99.9  69.1 1009.3 15.6  1.011 -99.9 -99.99 -9.99
2019/05/17 15:00 EDT   -0.18   0.57 -999 -999 -999 -99.9  69.1 1009.3 15.6  1.011 -99.9 -99.99 -9.99
2019/05/17 15:06 EDT   -0.17   0.57 -999 -999 -999 -99.9  69.1 1009.2 15.6  1.011 -99.9 -99.99 -9.99
2019/05/17 15:12 EDT   -0.15   0.59 -999 -999 -999 -99.9  69.1 1009.2 15.5  1.011 -99.9 -99.99 -9.99
2019/05/17 15:18 EDT   -0.13   0.60 -999 -999 -999 -99.9  69.3 1009.2 15.5  1.011 -99.9 -99.99 -9.99
2019/05/17 15:24 EDT   -0.11   0.62 -999 -999 -999 -99.9  69.1 1009.0 15.5  1.011 -99.9 -99.99 -9.99
2019/05/17 15:30 EDT   -0.08   0.66 -999 -999 -999 -99.9  69.3 1009.1 15.5  1.011 -99.9 -99.99 -9.99
2019/05/17 15:36 EDT   -0.05   0.69 -999 -999 -999 -99.9  69.1 1009.1 15.5  1.011 -99.9 -99.99 -9.99
2019/05/17 15:42 EDT   -0.01   0.72 -999 -999 -999 -99.9  69.1 1009.0 15.5  1.011 -99.9 -99.99 -9.99
2019/05/17 15:48 EDT    0.03   0.77 -999 -999 -999 -99.9  69.1 1008.8 15.5  1.011 -99.9 -99.99 -9.99
2019/05/17 15:54 EDT    0.07   0.81 -999 -999 -999 -99.9  69.3 1008.8 15.5  1.011 -99.9 -99.99 -9.99
2019/05/17 16:00 EDT    0.12   0.90 -999 -999 -999 -99.9  69.3 1008.7 15.5  1.011 -99.9 -99.99 -9.99
2019/05/17 16:06 EDT    0.17   0.96 -999 -999 -999 -99.9  69.3 1008.6 15.4  1.011 -99.9 -99.99 -9.99
2019/05/17 16:12 EDT    0.22   1.03 -999 -999 -999 -99.9  69.6 1008.6 15.1  1.010 -99.9 -99.99 -9.99
2019/05/17 16:18 EDT    0.28   1.08 -999 -999 -999 -99.9  69.6 1008.6 15.2  1.010 -99.9 -99.99 -9.99
2019/05/17 16:24 EDT    0.34   1.16 -999 -999 -999 -99.9  69.6 1008.6 15.1  1.010 -99.9 -99.99 -9.99
2019/05/17 16:30 EDT    0.40   1.24 -999 -999 -999 -99.9  69.4 1008.6 15.1  1.010 -99.9 -99.99 -9.99
2019/05/17 16:36 EDT    0.47   1.31 -999 -999 -999 -99.9  69.6 1008.6 15.1  1.010 -99.9 -99.99 -9.99
2019/05/17 16:42 EDT    0.54   1.35 -999 -999 -999 -99.9  69.6 1008.5 15.0  1.010 -99.9 -99.99 -9.99
2019/05/17 16:48 EDT    0.61   1.43 -999 -999 -999 -99.9  69.4 1008.6 15.2  1.010 -99.9 -99.99 -9.99
2019/05/17 16:54 EDT    0.68   1.51 -999 -999 -999 -99.9  69.6 1008.5 15.1  1.010 -99.9 -99.99 -9.99
2019/05/17 17:00 EDT    0.75   1.59 -999 -999 -999 -99.9  69.6 1008.6 15.0  1.010 -99.9 -99.99 -9.99
2019/05/17 17:06 EDT    0.83   1.64 -999 -999 -999 -99.9  69.6 1008.6 15.0  1.010 -99.9 -99.99 -9.99
2019/05/17 17:12 EDT    0.91   1.73 -999 -999 -999 -99.9  69.6 1008.7 15.0  1.010 -99.9 -99.99 -9.99
2019/05/17 17:18 EDT    0.99   1.81 -999 -999 -999 -99.9  69.6 1008.7 14.9  1.010 -99.9 -99.99 -9.99
2019/05/17 17:24 EDT    1.07   1.89 -999 -999 -999 -99.9  69.6 1008.7 14.8  1.010 -99.9 -99.99 -9.99
2019/05/17 17:30 EDT    1.15   2.00 -999 -999 -999 -99.9  69.6 1008.6 14.8  1.010 -99.9 -99.99 -9.99
2019/05/17 17:36 EDT    1.23   2.07 -999 -999 -999 -99.9  69.6 1008.7 14.8  1.010 -99.9 -99.99 -9.99
2019/05/17 17:42 EDT    1.32   2.14 -999 -999 -999 -99.9  69.6 1008.8 14.8  1.010 -99.9 -99.99 -9.99
2019/05/17 17:48 EDT    1.40   2.26 -999 -999 -999 -99.9  69.6 1008.8 14.8  1.010 -99.9 -99.99 -9.99
2019/05/17 17:54 EDT    1.48   2.33 -999 -999 -999 -99.9  69.6 1008.8 14.8  1.010 -99.9 -99.99 -9.99
2019/05/17 18:00 EDT    1.57   2.40 -999 -999 -999 -99.9  69.6 1008.8 14.7  1.010 -99.9 -99.99 -9.99
2019/05/17 18:06 EDT    1.65   2.52 -999 -999 -999 -99.9  69.6 1008.8 14.7  1.010 -99.9 -99.99 -9.99
2019/05/17 18:12 EDT    1.73   2.57 -999 -999 -999 -99.9  69.6 1008.9 14.7  1.010 -99.9 -99.99 -9.99
2019/05/17 18:18 EDT    1.82   2.68 -999 -999 -999 -99.9  69.6 1008.9 14.8  1.010 -99.9 -99.99 -9.99
2019/05/17 18:24 EDT    1.90   2.74 -999 -999 -999 -99.9  69.6 1009.0 14.7  1.010 -99.9 -99.99 -9.99
2019/05/17 18:30 EDT    1.98   2.84 -999 -999 -999 -99.9  69.6 1009.0 14.8  1.010 -99.9 -99.99 -9.99
2019/05/17 18:36 EDT    2.06   2.90 -999 -999 -999 -99.9  69.8 1009.1 14.7  1.010 -99.9 -99.99 -9.99
2019/05/17 18:42 EDT    2.14   2.93 -999 -999 -999 -99.9  69.8 1009.1 14.7  1.010 -99.9 -99.99 -9.99
2019/05/17 18:48 EDT    2.21   3.07 -999 -999 -999 -99.9  69.8 1009.2 14.8  1.010 -99.9 -99.99 -9.99
2019/05/17 18:54 EDT    2.29   3.12 -999 -999 -999 -99.9  69.8 1009.3 14.7  1.010 -99.9 -99.99 -9.99
2019/05/17 19:00 EDT    2.36   3.19 -999 -999 -999 -99.9  69.8 1009.4 14.7  1.010 -99.9 -99.99 -9.99
2019/05/17 19:06 EDT    2.43   3.24 -999 -999 -999 -99.9  69.8 1009.5 14.7  1.010 -99.9 -99.99 -9.99
2019/05/17 19:12 EDT    2.50   3.33 -999 -999 -999 -99.9  69.8 1009.6 14.7  1.010 -99.9 -99.99 -9.99
2019/05/17 19:18 EDT    2.56   3.40 -999 -999 -999 -99.9  69.8 1009.7 14.7  1.010 -99.9 -99.99 -9.99
2019/05/17 19:24 EDT    2.63   3.48 -999 -999 -999 -99.9  69.8 1009.9 14.7  1.010 -99.9 -99.99 -9.99
2019/05/17 19:30 EDT    2.69   3.53 -999 -999 -999 -99.9  69.8 1009.9 14.7  1.010 -99.9 -99.99 -9.99
2019/05/17 19:36 EDT    2.74   3.57 -999 -999 -999 -99.9  69.8 1010.0 14.7  1.010 -99.9 -99.99 -9.99
2019/05/17 19:42 EDT    2.80   3.63 -999 -999 -999 -99.9  69.8 1010.1 14.7  1.010 -99.9 -99.99 -9.99
2019/05/17 19:48 EDT    2.85   3.68 -999 -999 -999 -99.9  69.8 1010.1 14.8  1.010 -99.9 -99.99 -9.99
2019/05/17 19:54 EDT    2.90   3.71 -999 -999 -999 -99.9  69.6 1010.2 14.9  1.010 -99.9 -99.99 -9.99
2019/05/17 20:00 EDT    2.94   3.74 -999 -999 -999 -99.9  69.6 1010.2 15.0  1.010 -99.9 -99.99 -9.99
2019/05/17 20:06 EDT    2.98   3.79 -999 -999 -999 -99.9  69.6 1010.4 15.0  1.010 -99.9 -99.99 -9.99
2019/05/17 20:12 EDT    3.02   3.81 -999 -999 -999 -99.9  69.6 1010.5 15.0  1.010 -99.9 -99.99 -9.99
2019/05/17 20:18 EDT    3.06   3.85 -999 -999 -999 -99.9  69.6 1010.7 15.0  1.010 -99.9 -99.99 -9.99
2019/05/17 20:24 EDT    3.09   3.86 -999 -999 -999 -99.9  69.6 1010.7 15.1  1.010 -99.9 -99.99 -9.99
2019/05/17 20:30 EDT    3.11   3.87 -999 -999 -999 -99.9  69.3 1010.7 15.5  1.011 -99.9 -99.99 -9.99
2019/05/17 20:36 EDT    3.14   3.89 -999 -999 -999 -99.9  69.3 1010.7 15.5  1.011 -99.9 -99.99 -9.99
2019/05/17 20:42 EDT    3.15   3.90 -999 -999 -999 -99.9  69.3 1010.7 15.5  1.011 -99.9 -99.99 -9.99
2019/05/17 20:48 EDT    3.17   3.91 -999 -999 -999 -99.9  69.4 1010.7 15.4  1.011 -99.9 -99.99 -9.99
2019/05/17 20:54 EDT    3.18   3.91 -999 -999 -999 -99.9  69.1 1010.8 15.6  1.011 -99.9 -99.99 -9.99
2019/05/17 21:00 EDT    3.19   3.90 -999 -999 -999 -99.9  69.1 1010.9 15.6  1.011 -99.9 -99.99 -9.99
2019/05/17 21:06 EDT    3.19   3.89 -999 -999 -999 -99.9  68.9 1010.9 15.9  1.011 -99.9 -99.99 -9.99
2019/05/17 21:12 EDT    3.19   3.89 -999 -999 -999 -99.9  68.9 1011.0 15.8  1.011 -99.9 -99.99 -9.99
2019/05/17 21:18 EDT    3.18   3.88 -999 -999 -999 -99.9  68.9 1011.1 15.9  1.011 -99.9 -99.99 -9.99
2019/05/17 21:24 EDT    3.17   3.86 -999 -999 -999 -99.9  68.5 1011.2 16.1  1.011 -99.9 -99.99 -9.99
2019/05/17 21:30 EDT    3.16   3.84 -999 -999 -999 -99.9  68.9 1011.2 15.8  1.011 -99.9 -99.99 -9.99
2019/05/17 21:36 EDT    3.14   3.83 -999 -999 -999 -99.9  68.9 1011.2 15.7  1.011 -99.9 -99.99 -9.99
2019/05/17 21:42 EDT    3.12   3.81 -999 -999 -999 -99.9  69.1 1011.3 15.7  1.011 -99.9 -99.99 -9.99
2019/05/17 21:48 EDT    3.10   3.78 -999 -999 -999 -99.9  68.9 1011.3 15.8  1.011 -99.9 -99.99 -9.99
2019/05/17 21:54 EDT    3.07   3.75 -999 -999 -999 -99.9  68.9 1011.3 15.8  1.011 -99.9 -99.99 -9.99
2019/05/17 22:00 EDT    3.04   3.72 -999 -999 -999 -99.9  68.9 1011.4 15.9  1.011 -99.9 -99.99 -9.99
2019/05/17 22:06 EDT    3.00   3.68 -999 -999 -999 -99.9  68.7 1011.3 16.0  1.011 -99.9 -99.99 -9.99
2019/05/17 22:12 EDT    2.96   3.64 -999 -999 -999 -99.9  68.7 1011.4 16.0  1.011 -99.9 -99.99 -9.99
2019/05/17 22:18 EDT    2.92   3.60 -999 -999 -999 -99.9  68.7 1011.4 16.0  1.011 -99.9 -99.99 -9.99
2019/05/17 22:24 EDT    2.87   3.56 -999 -999 -999 -99.9  68.7 1011.4 16.0  1.011 -99.9 -99.99 -9.99
2019/05/17 22:30 EDT    2.82   3.52 -999 -999 -999 -99.9  68.7 1011.4 16.0  1.011 -99.9 -99.99 -9.99
2019/05/17 22:36 EDT    2.76   3.60 -999 -999 -999 -99.9  69.1 1011.6 15.7  1.011 -99.9 -99.99 -9.99
2019/05/17 22:42 EDT    2.71   3.45 -999 -999 -999 -99.9  69.1 1011.6 15.7  1.011 -99.9 -99.99 -9.99
2019/05/17 22:48 EDT    2.65   3.41 -999 -999 -999 -99.9  69.1 1011.7 15.7  1.011 -99.9 -99.99 -9.99
2019/05/17 22:54 EDT    2.59   3.36 -999 -999 -999 -99.9  69.1 1011.8 15.6  1.011 -99.9 -99.99 -9.99
2019/05/17 23:00 EDT    2.52   3.31 -999 -999 -999 -99.9  69.3 1011.8 15.5  1.011 -99.9 -99.99 -9.99
2019/05/17 23:06 EDT    2.45   3.26 -999 -999 -999 -99.9  69.1 1011.7 15.6  1.011 -99.9 -99.99 -9.99
2019/05/17 23:12 EDT    2.38   3.19 -999 -999 -999 -99.9  68.9 1011.6 15.7  1.011 -99.9 -99.99 -9.99
2019/05/17 23:18 EDT    2.31   3.12 -999 -999 -999 -99.9  69.1 1011.7 15.7  1.011 -99.9 -99.99 -9.99
2019/05/17 23:24 EDT    2.24   3.06 -999 -999 -999 -99.9  68.9 1011.8 15.8  1.011 -99.9 -99.99 -9.99
2019/05/17 23:30 EDT    2.16   2.99 -999 -999 -999 -99.9  68.9 1011.8 15.8  1.011 -99.9 -99.99 -9.99
2019/05/17 23:36 EDT    2.08   2.91 -999 -999 -999 -99.9  68.9 1011.8 15.8  1.011 -99.9 -99.99 -9.99
2019/05/17 23:42 EDT    2.00   2.83 -999 -999 -999 -99.9  68.9 1011.8 15.8  1.011 -99.9 -99.99 -9.99
2019/05/17 23:48 EDT    1.92   2.75 -999 -999 -999 -99.9  68.9 1011.8 15.8  1.011 -99.9 -99.99 -9.99
2019/05/17 23:54 EDT    1.84   2.68 -999 -999 -999 -99.9  68.9 1011.7 15.7  1.011 -99.9 -99.99 -9.99
2019/05/18 00:00 EDT    1.76   2.60 -999 -999 -999 -99.9  68.9 1011.8 15.8  1.011 -99.9 -99.99 -9.99
2019/05/18 00:06 EDT    1.67   2.52 -999 -999 -999 -99.9  68.9 1011.7 15.8  1.011 -99.9 -99.99 -9.99
2019/05/18 00:12 EDT    1.59   2.44 -999 -999 -999 -99.9  68.9 1011.6 15.8  1.011 -99.9 -99.99 -9.99
2019/05/18 00:18 EDT    1.51   2.37 -999 -999 -999 -99.9  68.9 1011.9 15.7  1.011 -99.9 -99.99 -9.99
2019/05/18 00:24 EDT    1.42   2.39 -999 -999 -999 -99.9  69.1 1013.4 15.6  1.011 -99.9 -99.99 -9.99
2019/05/18 00:30 EDT    1.34   2.29 -999 -999 -999 -99.9  69.1 1013.4 15.6  1.011 -99.9 -99.99 -9.99
2019/05/18 00:36 EDT    1.25   2.33 -999 -999 -999 -99.9  69.1 1013.5 15.6  1.011 -99.9 -99.99 -9.99
2019/05/18 00:42 EDT    1.17   2.14 -999 -999 -999 -99.9  69.1 1013.4 15.5  1.011 -99.9 -99.99 -9.99
2019/05/18 00:48 EDT    1.09   2.11 -999 -999 -999 -99.9  69.1 1013.2 15.5  1.011 -99.9 -99.99 -9.99
2019/05/18 00:54 EDT    1.01   2.03 -999 -999 -999 -99.9  69.3 1012.8 15.3  1.011 -99.9 -99.99 -9.99
2019/05/18 01:00 EDT    0.92   1.89 -999 -999 -999 -99.9  69.3 1012.5 15.3  1.011 -99.9 -99.99 -9.99
2019/05/18 01:06 EDT    0.85   1.81 -999 -999 -999 -99.9  69.3 1012.2 15.3  1.011 -99.9 -99.99 -9.99
2019/05/18 01:12 EDT    0.77   1.67 -999 -999 -999 -99.9  69.3 1012.0 15.3  1.011 -99.9 -99.99 -9.99
2019/05/18 01:18 EDT    0.69   1.60 -999 -999 -999 -99.9  69.3 1012.3 15.3  1.011 -99.9 -99.99 -9.99
2019/05/18 01:24 EDT    0.62   1.51 -999 -999 -999 -99.9  69.3 1012.1 15.3  1.011 -99.9 -99.99 -9.99
2019/05/18 01:30 EDT    0.55   1.44 -999 -999 -999 -99.9  69.3 1012.0 15.3  1.011 -99.9 -99.99 -9.99
2019/05/18 01:36 EDT    0.48   1.37 -999 -999 -999 -99.9  69.3 1011.9 15.2  1.010 -99.9 -99.99 -9.99
2019/05/18 01:42 EDT    0.41   1.34 -999 -999 -999 -99.9  69.3 1011.8 15.2  1.010 -99.9 -99.99 -9.99
2019/05/18 01:48 EDT    0.34   1.28 -999 -999 -999 -99.9  69.3 1012.1 15.3  1.011 -99.9 -99.99 -9.99
2019/05/18 01:54 EDT    0.28   1.20 -999 -999 -999 -99.9  69.3 1012.0 15.2  1.010 -99.9 -99.99 -9.99
2019/05/18 02:00 EDT    0.22   1.11 -999 -999 -999 -99.9  69.3 1011.9 15.2  1.010 -99.9 -99.99 -9.99
2019/05/18 02:06 EDT    0.17   1.12 -999 -999 -999 -99.9  69.3 1012.1 15.2  1.010 -99.9 -99.99 -9.99
2019/05/18 02:12 EDT    0.12   1.03 -999 -999 -999 -99.9  69.3 1012.0 15.2  1.010 -99.9 -99.99 -9.99
2019/05/18 02:18 EDT    0.07   1.03 -999 -999 -999 -99.9  69.3 1011.9 15.2  1.010 -99.9 -99.99 -9.99
2019/05/18 02:24 EDT    0.02   0.90 -999 -999 -999 -99.9  69.3 1011.7 15.2  1.010 -99.9 -99.99 -9.99
2019/05/18 02:30 EDT   -0.02   0.95 -999 -999 -999 -99.9  69.3 1011.3 15.2  1.010 -99.9 -99.99 -9.99
2019/05/18 02:36 EDT   -0.06   0.87 -999 -999 -999 -99.9  69.3 1011.5 15.2  1.010 -99.9 -99.99 -9.99
2019/05/18 02:42 EDT   -0.09   0.84 -999 -999 -999 -99.9  69.3 1011.4 15.2  1.010 -99.9 -99.99 -9.99
2019/05/18 02:48 EDT   -0.12   0.80 -999 -999 -999 -99.9  69.3 1011.4 15.2  1.010 -99.9 -99.99 -9.99
2019/05/18 02:54 EDT   -0.15   0.76 -999 -999 -999 -99.9  69.3 1011.4 15.2  1.010 -99.9 -99.99 -9.99
2019/05/18 03:00 EDT   -0.17   0.74 -999 -999 -999 -99.9  69.3 1011.6 15.2  1.010 -99.9 -99.99 -9.99
2019/05/18 03:06 EDT   -0.19   0.72 -999 -999 -999 -99.9  69.3 1011.6 15.2  1.010 -99.9 -99.99 -9.99
2019/05/18 03:12 EDT   -0.21   0.69 -999 -999 -999 -99.9  69.3 1011.7 15.2  1.010 -99.9 -99.99 -9.99
2019/05/18 03:18 EDT   -0.22   0.67 -999 -999 -999 -99.9  69.3 1011.7 15.2  1.010 -99.9 -99.99 -9.99
2019/05/18 03:24 EDT   -0.22   0.64 -999 -999 -999 -99.9  69.3 1011.8 15.3  1.011 -99.9 -99.99 -9.99
2019/05/18 03:30 EDT   -0.22   0.63 -999 -999 -999 -99.9  69.3 1011.8 15.3  1.011 -99.9 -99.99 -9.99
2019/05/18 03:36 EDT   -0.22   0.64 -999 -999 -999 -99.9  69.3 1011.8 15.3  1.011 -99.9 -99.99 -9.99
2019/05/18 03:42 EDT   -0.22   0.64 -999 -999 -999 -99.9  69.3 1011.8 15.4  1.011 -99.9 -99.99 -9.99
2019/05/18 03:48 EDT   -0.21   0.63 -999 -999 -999 -99.9  69.1 1012.0 15.5  1.011 -99.9 -99.99 -9.99
2019/05/18 03:54 EDT   -0.19   0.62 -999 -999 -999 -99.9  69.1 1012.0 15.5  1.011 -99.9 -99.99 -9.99
2019/05/18 04:00 EDT   -0.17   0.64 -999 -999 -999 -99.9  69.1 1012.0 15.5  1.011 -99.9 -99.99 -9.99
2019/05/18 04:06 EDT   -0.15   0.66 -999 -999 -999 -99.9  69.1 1012.1 15.5  1.011 -99.9 -99.99 -9.99
2019/05/18 04:12 EDT   -0.12   0.68 -999 -999 -999 -99.9  69.1 1012.0 15.5  1.011 -99.9 -99.99 -9.99
2019/05/18 04:18 EDT   -0.09   0.71 -999 -999 -999 -99.9  69.1 1012.1 15.4  1.011 -99.9 -99.99 -9.99
2019/05/18 04:24 EDT   -0.06   0.75 -999 -999 -999 -99.9  69.1 1012.2 15.5  1.011 -99.9 -99.99 -9.99
2019/05/18 04:30 EDT   -0.02   0.77 -999 -999 -999 -99.9  69.1 1012.2 15.5  1.011 -99.9 -99.99 -9.99
2019/05/18 04:36 EDT    0.02   0.82 -999 -999 -999 -99.9  69.1 1012.2 15.4  1.011 -99.9 -99.99 -9.99
2019/05/18 04:42 EDT    0.06   0.83 -999 -999 -999 -99.9  69.3 1012.3 15.4  1.011 -99.9 -99.99 -9.99
2019/05/18 04:48 EDT    0.11   0.89 -999 -999 -999 -99.9  69.3 1012.4 15.4  1.011 -99.9 -99.99 -9.99
2019/05/18 04:54 EDT    0.16   0.92 -999 -999 -999 -99.9  69.3 1012.5 15.4  1.011 -99.9 -99.99 -9.99
2019/05/18 05:00 EDT    0.21   0.97 -999 -999 -999 -99.9  69.3 1012.5 15.3  1.011 -99.9 -99.99 -9.99
2019/05/18 05:06 EDT    0.27   1.02 -999 -999 -999 -99.9  69.3 1012.6 15.4  1.011 -99.9 -99.99 -9.99
2019/05/18 05:12 EDT    0.32   1.05 -999 -999 -999 -99.9  69.3 1012.6 15.3  1.011 -99.9 -99.99 -9.99
2019/05/18 05:18 EDT    0.38   1.12 -999 -999 -999 -99.9  69.3 1012.6 15.3  1.011 -99.9 -99.99 -9.99
2019/05/18 05:24 EDT    0.45   1.17 -999 -999 -999 -99.9  69.3 1012.7 15.3  1.011 -99.9 -99.99 -9.99
2019/05/18 05:30 EDT    0.51   1.24 -999 -999 -999 -99.9  69.3 1012.7 15.1  1.010 -99.9 -99.99 -9.99
2019/05/18 05:36 EDT    0.58   1.33 -999 -999 -999 -99.9  69.3 1012.7 14.8  1.010 -99.9 -99.99 -9.99
2019/05/18 05:42 EDT    0.65   1.35 -999 -999 -999 -99.9  69.3 1012.7 14.9  1.010 -99.9 -99.99 -9.99
2019/05/18 05:48 EDT    0.72   1.48 -999 -999 -999 -99.9  69.3 1012.9 14.9  1.010 -99.9 -99.99 -9.99
2019/05/18 05:54 EDT    0.79   1.51 -999 -999 -999 -99.9  69.3 1013.0 15.1  1.010 -99.9 -99.99 -9.99
2019/05/18 06:00 EDT    0.86   1.58 -999 -999 -999 -99.9  69.3 1013.0 15.0  1.010 -99.9 -99.99 -9.99
2019/05/18 06:06 EDT    0.93   1.64 -999 -999 -999 -99.9  69.3 1013.1 14.9  1.010 -99.9 -99.99 -9.99
2019/05/18 06:12 EDT    1.00   1.74 -999 -999 -999 -99.9  69.3 1013.2 14.8  1.010 -99.9 -99.99 -9.99
2019/05/18 06:18 EDT    1.08   1.82 -999 -999 -999 -99.9  69.3 1013.3 14.9  1.010 -99.9 -99.99 -9.99
2019/05/18 06:24 EDT    1.15   1.94 -999 -999 -999 -99.9  69.3 1013.6 14.8  1.010 -99.9 -99.99 -9.99
2019/05/18 06:30 EDT    1.23   2.01 -999 -999 -999 -99.9  69.3 1013.6 14.8  1.010 -99.9 -99.99 -9.99
2019/05/18 06:36 EDT    1.30   2.08 -999 -999 -999 -99.9  69.3 1013.7 14.8  1.010 -99.9 -99.99 -9.99
2019/05/18 06:42 EDT    1.37   2.16 -999 -999 -999 -99.9  69.3 1013.8 14.8  1.010 -99.9 -99.99 -9.99
2019/05/18 06:48 EDT    1.45   2.25 -999 -999 -999 -99.9  69.3 1013.9 14.8  1.010 -99.9 -99.99 -9.99
2019/05/18 06:54 EDT    1.52   2.32 -999 -999 -999 -99.9  69.3 1014.0 15.0  1.010 -99.9 -99.99 -9.99
2019/05/18 07:00 EDT    1.59   2.38 -999 -999 -999 -99.9  69.3 1014.1 15.0  1.010 -99.9 -99.99 -9.99
2019/05/18 07:06 EDT    1.66   2.49 -999 -999 -999 -99.9  69.3 1014.3 14.9  1.010 -99.9 -99.99 -9.99
2019/05/18 07:12 EDT    1.73   2.55 -999 -999 -999 -99.9  69.3 1014.2 14.8  1.010 -99.9 -99.99 -9.99
2019/05/18 07:18 EDT    1.79   2.59 -999 -999 -999 -99.9  69.3 1014.3 14.7  1.010 -99.9 -99.99 -9.99
2019/05/18 07:24 EDT    1.86   2.71 -999 -999 -999 -99.9  69.3 1014.3 14.8  1.010 -99.9 -99.99 -9.99
2019/05/18 07:30 EDT    1.92   2.75 -999 -999 -999 -99.9  69.3 1014.3 14.8  1.010 -99.9 -99.99 -9.99
2019/05/18 07:36 EDT    1.99   2.82 -999 -999 -999 -99.9  69.3 1014.3 14.8  1.010 -99.9 -99.99 -9.99
2019/05/18 07:42 EDT    2.05   2.84 -999 -999 -999 -99.9  69.3 1014.5 14.7  1.010 -99.9 -99.99 -9.99
2019/05/18 07:48 EDT    2.10   2.96 -999 -999 -999 -99.9  69.3 1014.6 14.8  1.010 -99.9 -99.99 -9.99
2019/05/18 07:54 EDT    2.16   2.98 -999 -999 -999 -99.9  69.3 1014.6 14.7  1.010 -99.9 -99.99 -9.99
2019/05/18 08:00 EDT    2.21   3.06 -999 -999 -999 -99.9  69.3 1014.6 14.7  1.010 -99.9 -99.99 -9.99
2019/05/18 08:06 EDT    2.26   3.11 -999 -999 -999 -99.9  69.3 1014.5 14.7  1.010 -99.9 -99.99 -9.99
2019/05/18 08:12 EDT    2.31   3.14 -999 -999 -999 -99.9  69.3 1014.5 14.3  1.010 -99.9 -99.99 -9.99
2019/05/18 08:18 EDT    2.35   3.22 -999 -999 -999 -99.9  69.3 1014.5 14.7  1.010 -99.9 -99.99 -9.99
2019/05/18 08:24 EDT    2.39   3.21 -999 -999 -999 -99.9  69.3 1014.6 14.7  1.010 -99.9 -99.99 -9.99
2019/05/18 08:30 EDT    2.43   3.26 -999 -999 -999 -99.9  69.4 1014.8 14.7  1.010 -99.9 -99.99 -9.99
2019/05/18 08:36 EDT    2.46   3.31 -999 -999 -999 -99.9  69.3 1014.9 14.8  1.010 -99.9 -99.99 -9.99
2019/05/18 08:42 EDT    2.50   3.35 -999 -999 -999 -99.9  69.3 1015.0 14.9  1.010 -99.9 -99.99 -9.99
2019/05/18 08:48 EDT    2.52   3.34 -999 -999 -999 -99.9  69.3 1015.1 14.9  1.010 -99.9 -99.99 -9.99
2019/05/18 08:54 EDT    2.55   3.39 -999 -999 -999 -99.9  69.3 1015.2 15.0  1.010 -99.9 -99.99 -9.99
2019/05/18 09:00 EDT    2.57   3.36 -999 -999 -999 -99.9  69.3 1015.2 15.0  1.010 -99.9 -99.99 -9.99
2019/05/18 09:06 EDT    2.59   3.39 -999 -999 -999 -99.9  69.3 1015.3 15.1  1.010 -99.9 -99.99 -9.99
2019/05/18 09:12 EDT    2.60   3.39 -999 -999 -999 -99.9  69.3 1015.4 15.1  1.010 -99.9 -99.99 -9.99
2019/05/18 09:18 EDT    2.61   3.40 -999 -999 -999 -99.9  69.3 1015.6 15.1  1.010 -99.9 -99.99 -9.99
2019/05/18 09:24 EDT    2.62   3.40 -999 -999 -999 -99.9  69.3 1015.6 15.1  1.010 -99.9 -99.99 -9.99
2019/05/18 09:30 EDT    2.62   3.39 -999 -999 -999 -99.9  69.3 1015.6 15.1  1.010 -99.9 -99.99 -9.99
2019/05/18 09:36 EDT    2.62   3.38 -999 -999 -999 -99.9  69.3 1015.6 15.1  1.010 -99.9 -99.99 -9.99
2019/05/18 09:42 EDT    2.61   3.35 -999 -999 -999 -99.9  69.3 1015.7 15.1  1.010 -99.9 -99.99 -9.99
2019/05/18 09:48 EDT    2.61   3.33 -999 -999 -999 -99.9  69.3 1015.7 15.2  1.010 -99.9 -99.99 -9.99
2019/05/18 09:54 EDT    2.59   3.30 -999 -999 -999 -99.9  69.1 1015.7 15.2  1.011 -99.9 -99.99 -9.99
2019/05/18 10:00 EDT    2.58   3.29 -999 -999 -999 -99.9  69.3 1015.8 15.2  1.010 -99.9 -99.99 -9.99
2019/05/18 10:06 EDT    2.56   3.26 -999 -999 -999 -99.9  69.1 1015.8 15.3  1.011 -99.9 -99.99 -9.99
2019/05/18 10:12 EDT    2.54   3.23 -999 -999 -999 -99.9  69.3 1015.9 15.2  1.010 -99.9 -99.99 -9.99
2019/05/18 10:18 EDT    2.51   3.22 -999 -999 -999 -99.9  69.3 1016.1 15.1  1.010 -99.9 -99.99 -9.99
2019/05/18 10:24 EDT    2.48   3.20 -999 -999 -999 -99.9  69.3 1016.1 15.2  1.010 -99.9 -99.99 -9.99
2019/05/18 10:30 EDT    2.45   3.17 -999 -999 -999 -99.9  69.1 1016.2 15.3  1.011 -99.9 -99.99 -9.99
2019/05/18 10:36 EDT    2.41   3.16 -999 -999 -999 -99.9  69.1 1016.2 15.3  1.011 -99.9 -99.99 -9.99
2019/05/18 10:42 EDT    2.37   3.10 -999 -999 -999 -99.9  69.1 1016.2 15.4  1.011 -99.9 -99.99 -9.99
2019/05/18 10:48 EDT    2.33   3.05 -999 -999 -999 -99.9  69.1 1016.2 15.5  1.011 -99.9 -99.99 -9.99
2019/05/18 10:54 EDT    2.29   2.99 -999 -999 -999 -99.9  69.1 1016.3 15.5  1.011 -99.9 -99.99 -9.99
2019/05/18 11:00 EDT    2.24   2.95 -999 -999 -999 -99.9  69.1 1016.3 15.4  1.011 -99.9 -99.99 -9.99
2019/05/18 11:06 EDT    2.19   2.87 -999 -999 -999 -99.9  69.1 1016.3 15.5  1.011 -99.9 -99.99 -9.99
2019/05/18 11:12 EDT    2.13   2.85 -999 -999 -999 -99.9  69.1 1016.3 15.4  1.011 -99.9 -99.99 -9.99
2019/05/18 11:18 EDT    2.08   2.82 -999 -999 -999 -99.9  69.1 1016.2 15.4  1.011 -99.9 -99.99 -9.99
2019/05/18 11:24 EDT    2.02   2.78 -999 -999 -999 -99.9  69.1 1016.2 15.5  1.011 -99.9 -99.99 -9.99
2019/05/18 11:30 EDT    1.96   2.74 -999 -999 -999 -99.9  68.9 1016.2 15.5  1.011 -99.9 -99.99 -9.99
2019/05/18 11:36 EDT    1.90   2.69 -999 -999 -999 -99.9  69.1 1016.2 15.5  1.011 -99.9 -99.99 -9.99
2019/05/18 11:42 EDT    1.83   2.63 -999 -999 -999 -99.9  69.1 1016.2 15.4  1.011 -99.9 -99.99 -9.99
2019/05/18 11:48 EDT    1.77   2.57 -999 -999 -999 -99.9  69.1 1016.1 15.5  1.011 -99.9 -99.99 -9.99
2019/05/18 11:54 EDT    1.70   2.47 -999 -999 -999 -99.9  68.9 1016.1 15.7  1.011 -99.9 -99.99 -9.99
2019/05/18 12:00 EDT    1.63   2.40 -999 -999 -999 -99.9  68.7 1016.1 15.9  1.011 -99.9 -99.99 -9.99
2019/05/18 12:06 EDT    1.56   2.31 -999 -999 -999 -99.9  68.9 1016.0 15.8  1.011 -99.9 -99.99 -9.99
2019/05/18 12:12 EDT    1.49   2.21 -999 -999 -999 -99.9  68.9 1016.1 15.8  1.011 -99.9 -99.99 -9.99
2019/05/18 12:18 EDT    1.42   2.16 -999 -999 -999 -99.9  68.9 1016.2 15.6  1.011 -99.9 -99.99 -9.99
2019/05/18 12:24 EDT    1.35   2.07 -999 -999 -999 -99.9  69.1 1016.2 15.5  1.011 -99.9 -99.99 -9.99
2019/05/18 12:30 EDT    1.27   2.00 -999 -999 -999 -99.9  69.1 1016.3 15.4  1.011 -99.9 -99.99 -9.99
2019/05/18 12:36 EDT    1.20   1.92 -999 -999 -999 -99.9  69.1 1016.3 15.4  1.011 -99.9 -99.99 -9.99
2019/05/18 12:42 EDT    1.13   1.85 -999 -999 -999 -99.9  69.1 1016.2 15.4  1.011 -99.9 -99.99 -9.99
2019/05/18 12:48 EDT    1.05   1.76 -999 -999 -999 -99.9  69.1 1016.2 15.4  1.011 -99.9 -99.99 -9.99
2019/05/18 12:54 EDT    0.98   1.69 -999 -999 -999 -99.9  69.1 1016.1 15.5  1.011 -99.9 -99.99 -9.99
2019/05/18 13:00 EDT    0.91   1.62 -999 -999 -999 -99.9  69.1 1016.1 15.5  1.011 -99.9 -99.99 -9.99
2019/05/18 13:06 EDT    0.84   1.56 -999 -999 -999 -99.9  69.1 1016.2 15.5  1.011 -99.9 -99.99 -9.99
2019/05/18 13:12 EDT    0.77   1.49 -999 -999 -999 -99.9  69.1 1016.2 15.5  1.011 -99.9 -99.99 -9.99
2019/05/18 13:18 EDT    0.70   1.43 -999 -999 -999 -99.9  69.1 1016.3 15.6  1.011 -99.9 -99.99 -9.99
2019/05/18 13:24 EDT    0.63   1.38 -999 -999 -999 -99.9  69.1 1016.2 15.5  1.011 -99.9 -99.99 -9.99
2019/05/18 13:30 EDT    0.56   1.32 -999 -999 -999 -99.9  68.9 1016.2 15.6  1.011 -99.9 -99.99 -9.99
2019/05/18 13:36 EDT    0.50   1.26 -999 -999 -999 -99.9  68.9 1016.2 15.6  1.011 -99.9 -99.99 -9.99
2019/05/18 13:42 EDT    0.44   1.22 -999 -999 -999 -99.9  68.9 1016.2 15.6  1.011 -99.9 -99.99 -9.99
2019/05/18 13:48 EDT    0.38   1.19 -999 -999 -999 -99.9  69.1 1016.3 15.6  1.011 -99.9 -99.99 -9.99
2019/05/18 13:54 EDT    0.32   1.16 -999 -999 -999 -99.9  69.3 1016.3 15.4  1.011 -99.9 -99.99 -9.99
2019/05/18 14:00 EDT    0.26   1.12 -999 -999 -999 -99.9  69.3 1016.1 15.4  1.011 -99.9 -99.99 -9.99
2019/05/18 14:06 EDT    0.21   1.08 -999 -999 -999 -99.9  69.4 1016.2 15.4  1.011 -99.9 -99.99 -9.99
2019/05/18 14:12 EDT    0.16   1.05 -999 -999 -999 -99.9  69.4 1016.1 15.4  1.011 -99.9 -99.99 -9.99
2019/05/18 14:18 EDT    0.11   1.01 -999 -999 -999 -99.9  70.0 1016.2 15.2  1.010 -99.9 -99.99 -9.99
2019/05/18 14:24 EDT    0.07   0.96 -999 -999 -999 -99.9  69.6 1016.1 15.4  1.011 -99.9 -99.99 -9.99
2019/05/18 14:30 EDT    0.03   0.92 -999 -999 -999 -99.9  69.6 1016.1 15.4  1.011 -99.9 -99.99 -9.99
2019/05/18 14:36 EDT   -0.01   0.88 -999 -999 -999 -99.9  69.6 1016.1 15.5  1.011 -99.9 -99.99 -9.99
2019/05/18 14:42 EDT   -0.05   0.85 -999 -999 -999 -99.9  69.6 1016.1 15.5  1.011 -99.9 -99.99 -9.99
2019/05/18 14:48 EDT   -0.08   0.82 -999 -999 -999 -99.9  69.8 1016.0 15.4  1.011 -99.9 -99.99 -9.99
2019/05/18 14:54 EDT   -0.10   0.78 -999 -999 -999 -99.9  69.6 1016.0 15.5  1.011 -99.9 -99.99 -9.99
2019/05/18 15:00 EDT   -0.13   0.76 -999 -999 -999 -99.9  69.8 1015.9 15.5  1.011 -99.9 -99.99 -9.99
2019/05/18 15:06 EDT   -0.15   0.74 -999 -999 -999 -99.9  69.8 1015.9 15.5  1.011 -99.9 -99.99 -9.99
2019/05/18 15:12 EDT   -0.16   0.73 -999 -999 -999 -99.9  69.8 1015.8 15.5  1.011 -99.9 -99.99 -9.99
2019/05/18 15:18 EDT   -0.17   0.72 -999 -999 -999 -99.9  69.8 1015.7 15.5  1.011 -99.9 -99.99 -9.99
2019/05/18 15:24 EDT   -0.18   0.72 -999 -999 -999 -99.9  69.8 1015.6 15.5  1.011 -99.9 -99.99 -9.99
2019/05/18 15:30 EDT   -0.18   0.71 -999 -999 -999 -99.9  70.0 1015.4 15.4  1.011 -99.9 -99.99 -9.99
2019/05/18 15:36 EDT   -0.18   0.71 -999 -999 -999 -99.9  70.0 1015.6 15.4  1.011 -99.9 -99.99 -9.99
2019/05/18 15:42 EDT   -0.18   0.71 -999 -999 -999 -99.9  70.0 1015.5 15.4  1.011 -99.9 -99.99 -9.99
2019/05/18 15:48 EDT   -0.17   0.72 -999 -999 -999 -99.9  70.2 1015.3 15.4  1.010 -99.9 -99.99 -9.99
2019/05/18 15:54 EDT   -0.16   0.73 -999 -999 -999 -99.9  70.2 1015.3 15.4  1.010 -99.9 -99.99 -9.99
2019/05/18 16:00 EDT   -0.14   0.76 -999 -999 -999 -99.9  70.2 1015.3 15.4  1.010 -99.9 -99.99 -9.99
2019/05/18 16:06 EDT   -0.12   0.78 -999 -999 -999 -99.9  70.2 1015.2 15.4  1.010 -99.9 -99.99 -9.99
2019/05/18 16:12 EDT   -0.09   0.81 -999 -999 -999 -99.9  70.2 1015.3 15.4  1.010 -99.9 -99.99 -9.99
2019/05/18 16:18 EDT   -0.06   0.83 -999 -999 -999 -99.9  70.0 1015.3 15.4  1.011 -99.9 -99.99 -9.99
2019/05/18 16:24 EDT   -0.03   0.86 -999 -999 -999 -99.9  69.8 1015.3 15.4  1.011 -99.9 -99.99 -9.99
2019/05/18 16:30 EDT    0.01   0.90 -999 -999 -999 -99.9  69.8 1015.2 15.4  1.011 -99.9 -99.99 -9.99
2019/05/18 16:36 EDT    0.05   0.95 -999 -999 -999 -99.9  69.8 1015.2 15.4  1.011 -99.9 -99.99 -9.99
2019/05/18 16:42 EDT    0.09   0.99 -999 -999 -999 -99.9  69.4 1015.3 15.5  1.011 -99.9 -99.99 -9.99
2019/05/18 16:48 EDT    0.14   0.99 -999 -999 -999 -99.9  69.4 1015.3 15.5  1.011 -99.9 -99.99 -9.99
2019/05/18 16:54 EDT    0.19   1.09 -999 -999 -999 -99.9  69.4 1015.2 15.5  1.011 -99.9 -99.99 -9.99
2019/05/18 17:00 EDT    0.24   1.13 -999 -999 -999 -99.9  69.4 1015.3 15.5  1.011 -99.9 -99.99 -9.99
2019/05/18 17:06 EDT    0.30   1.18 -999 -999 -999 -99.9  69.4 1015.2 15.5  1.011 -99.9 -99.99 -9.99
2019/05/18 17:12 EDT    0.36   1.22 -999 -999 -999 -99.9  69.4 1015.3 15.5  1.011 -99.9 -99.99 -9.99
2019/05/18 17:18 EDT    0.43   1.29 -999 -999 -999 -99.9  69.4 1015.3 15.5  1.011 -99.9 -99.99 -9.99
2019/05/18 17:24 EDT    0.49   1.37 -999 -999 -999 -99.9  69.8 1015.3 15.4  1.011 -99.9 -99.99 -9.99
2019/05/18 17:30 EDT    0.56   1.45 -999 -999 -999 -99.9  69.8 1015.3 15.4  1.011 -99.9 -99.99 -9.99
2019/05/18 17:36 EDT    0.63   1.52 -999 -999 -999 -99.9  71.4 1015.4 15.0  1.010 -99.9 -99.99 -9.99
2019/05/18 17:42 EDT    0.70   1.62 -999 -999 -999 -99.9  71.4 1015.4 15.0  1.010 -99.9 -99.99 -9.99
2019/05/18 17:48 EDT    0.78   1.72 -999 -999 -999 -99.9  71.2 1015.4 15.0  1.010 -99.9 -99.99 -9.99
2019/05/18 17:54 EDT    0.85   1.78 -999 -999 -999 -99.9  71.4 1015.4 14.9  1.010 -99.9 -99.99 -9.99
2019/05/18 18:00 EDT    0.93   1.91 -999 -999 -999 -99.9  70.9 1015.5 15.0  1.010 -99.9 -99.99 -9.99
2019/05/18 18:06 EDT    1.01   1.98 -999 -999 -999 -99.9  70.5 1015.5 15.2  1.010 -99.9 -99.99 -9.99
2019/05/18 18:12 EDT    1.09   2.07 -999 -999 -999 -99.9  70.7 1015.6 15.1  1.010 -99.9 -99.99 -9.99
2019/05/18 18:18 EDT    1.17   2.14 -999 -999 -999 -99.9  70.9 1015.4 15.1  1.010 -99.9 -99.99 -9.99
2019/05/18 18:24 EDT    1.26   2.23 -999 -999 -999 -99.9  70.9 1015.4 15.1  1.010 -99.9 -99.99 -9.99
2019/05/18 18:30 EDT    1.34   2.32 -999 -999 -999 -99.9  70.7 1015.4 15.2  1.010 -99.9 -99.99 -9.99
2019/05/18 18:36 EDT    1.42   2.41 -999 -999 -999 -99.9  70.9 1015.5 15.0  1.010 -99.9 -99.99 -9.99
2019/05/18 18:42 EDT    1.51   2.48 -999 -999 -999 -99.9  71.2 1015.6 14.9  1.010 -99.9 -99.99 -9.99
2019/05/18 18:48 EDT    1.59   2.48 -999 -999 -999 -99.9  71.4 1015.6 14.9  1.010 -99.9 -99.99 -9.99
2019/05/18 18:54 EDT    1.67   2.63 -999 -999 -999 -99.9  71.4 1015.6 14.9  1.010 -99.9 -99.99 -9.99
2019/05/18 19:00 EDT    1.76   2.70 -999 -999 -999 -99.9  71.6 1015.7 14.8  1.010 -99.9 -99.99 -9.99
2019/05/18 19:06 EDT    1.84   2.79 -999 -999 -999 -99.9  71.6 1015.8 14.8  1.010 -99.9 -99.99 -9.99
2019/05/18 19:12 EDT    1.92   2.85 -999 -999 -999 -99.9  71.6 1015.8 14.8  1.010 -99.9 -99.99 -9.99
2019/05/18 19:18 EDT    2.00   2.95 -999 -999 -999 -99.9  71.1 1015.9 15.0  1.010 -99.9 -99.99 -9.99
2019/05/18 19:24 EDT    2.08   3.01 -999 -999 -999 -99.9  70.7 1016.1 15.2  1.010 -99.9 -99.99 -9.99
2019/05/18 19:30 EDT    2.15   3.10 -999 -999 -999 -99.9  70.7 1016.1 15.2  1.010 -99.9 -99.99 -9.99
2019/05/18 19:36 EDT    2.23   3.17 -999 -999 -999 -99.9  70.3 1016.1 15.3  1.010 -99.9 -99.99 -9.99
2019/05/18 19:42 EDT    2.30   3.26 -999 -999 -999 -99.9  70.3 1016.2 15.3  1.010 -99.9 -99.99 -9.99
2019/05/18 19:48 EDT    2.38   3.33 -999 -999 -999 -99.9  70.7 1016.2 15.2  1.010 -99.9 -99.99 -9.99
2019/05/18 19:54 EDT    2.45   3.38 -999 -999 -999 -99.9  70.5 1016.3 15.2  1.010 -99.9 -99.99 -9.99
2019/05/18 20:00 EDT    2.51   3.45 -999 -999 -999 -99.9  70.2 1016.3 15.3  1.010 -99.9 -99.99 -9.99
2019/05/18 20:06 EDT    2.58   3.50 -999 -999 -999 -99.9  69.6 1016.4 15.5  1.011 -99.9 -99.99 -9.99
2019/05/18 20:12 EDT    2.64   3.55 -999 -999 -999 -99.9  69.4 1016.4 15.6  1.011 -99.9 -99.99 -9.99
2019/05/18 20:18 EDT    2.70   3.60 -999 -999 -999 -99.9  69.4 1016.4 15.7  1.011 -99.9 -99.99 -9.99
2019/05/18 20:24 EDT    2.76   3.66 -999 -999 -999 -99.9  69.3 1016.4 15.7  1.011 -99.9 -99.99 -9.99
2019/05/18 20:30 EDT    2.81   3.69 -999 -999 -999 -99.9  69.3 1016.4 15.8  1.011 -99.9 -99.99 -9.99
2019/05/18 20:36 EDT    2.86   3.72 -999 -999 -999 -99.9  69.3 1016.4 15.8  1.011 -99.9 -99.99 -9.99
2019/05/18 20:42 EDT    2.91   3.73 -999 -999 -999 -99.9  69.3 1016.4 15.8  1.011 -99.9 -99.99 -9.99
2019/05/18 20:48 EDT    2.95   3.78 -999 -999 -999 -99.9  69.3 1016.4 15.8  1.011 -99.9 -99.99 -9.99
2019/05/18 20:54 EDT    2.99   3.81 -999 -999 -999 -99.9  69.3 1016.5 15.8  1.011 -99.9 -99.99 -9.99
2019/05/18 21:00 EDT    3.03   3.85 -999 -999 -999 -99.9  69.1 1016.5 15.9  1.011 -99.9 -99.99 -9.99
2019/05/18 21:06 EDT    3.07   3.88 -999 -999 -999 -99.9  69.1 1016.6 15.9  1.011 -99.9 -99.99 -9.99
2019/05/18 21:12 EDT    3.09   3.90 -999 -999 -999 -99.9  69.1 1016.7 16.0  1.011 -99.9 -99.99 -9.99
2019/05/18 21:18 EDT    3.12   3.91 -999 -999 -999 -99.9  68.9 1016.7 16.0  1.011 -99.9 -99.99 -9.99
2019/05/18 21:24 EDT    3.14   3.92 -999 -999 -999 -99.9  68.9 1016.8 16.1  1.011 -99.9 -99.99 -9.99
2019/05/18 21:30 EDT    3.16   3.93 -999 -999 -999 -99.9  68.9 1016.8 16.1  1.011 -99.9 -99.99 -9.99
2019/05/18 21:36 EDT    3.17   3.93 -999 -999 -999 -99.9  68.9 1016.9 16.1  1.011 -99.9 -99.99 -9.99
2019/05/18 21:42 EDT    3.18   3.93 -999 -999 -999 -99.9  68.9 1017.0 16.1  1.011 -99.9 -99.99 -9.99
2019/05/18 21:48 EDT    3.19   3.92 -999 -999 -999 -99.9  68.9 1017.1 16.2  1.011 -99.9 -99.99 -9.99
2019/05/18 21:54 EDT    3.19   3.93 -999 -999 -999 -99.9  68.9 1017.2 16.2  1.011 -99.9 -99.99 -9.99
2019/05/18 22:00 EDT    3.19   3.92 -999 -999 -999 -99.9  69.1 1017.2 16.1  1.011 -99.9 -99.99 -9.99
2019/05/18 22:06 EDT    3.19   3.91 -999 -999 -999 -99.9  68.9 1017.2 16.2  1.011 -99.9 -99.99 -9.99
2019/05/18 22:12 EDT    3.18   3.90 -999 -999 -999 -99.9  68.9 1017.3 16.3  1.011 -99.9 -99.99 -9.99
2019/05/18 22:18 EDT    3.16   3.90 -999 -999 -999 -99.9  68.7 1017.4 16.4  1.011 -99.9 -99.99 -9.99
2019/05/18 22:24 EDT    3.14   3.88 -999 -999 -999 -99.9  68.7 1017.5 16.5  1.012 -99.9 -99.99 -9.99
2019/05/18 22:30 EDT    3.12   3.86 -999 -999 -999 -99.9  68.7 1017.5 16.6  1.012 -99.9 -99.99 -9.99
2019/05/18 22:36 EDT    3.10   3.85 -999 -999 -999 -99.9  68.7 1017.5 16.6  1.012 -99.9 -99.99 -9.99
2019/05/18 22:42 EDT    3.07   3.82 -999 -999 -999 -99.9  68.5 1017.4 16.7  1.012 -99.9 -99.99 -9.99
2019/05/18 22:48 EDT    3.03   3.79 -999 -999 -999 -99.9  68.5 1017.5 16.7  1.012 -99.9 -99.99 -9.99
2019/05/18 22:54 EDT    3.00   3.76 -999 -999 -999 -99.9  68.5 1017.5 16.6  1.012 -99.9 -99.99 -9.99
2019/05/18 23:00 EDT    2.96   3.72 -999 -999 -999 -99.9  68.7 1017.5 16.5  1.012 -99.9 -99.99 -9.99
2019/05/18 23:06 EDT    2.91   3.67 -999 -999 -999 -99.9  68.9 1017.5 16.2  1.011 -99.9 -99.99 -9.99
2019/05/18 23:12 EDT    2.87   3.63 -999 -999 -999 -99.9  69.1 1017.4 16.1  1.011 -99.9 -99.99 -9.99
2019/05/18 23:18 EDT    2.82   3.58 -999 -999 -999 -99.9  68.9 1017.4 16.3  1.011 -99.9 -99.99 -9.99
2019/05/18 23:24 EDT    2.76   3.59 -999 -999 -999 -99.9  68.9 1017.4 16.3  1.011 -99.9 -99.99 -9.99
2019/05/18 23:30 EDT    2.71   3.49 -999 -999 -999 -99.9  68.7 1017.4 16.4  1.011 -99.9 -99.99 -9.99
2019/05/18 23:36 EDT    2.65   3.36 -999 -999 -999 -99.9  68.9 1017.4 16.3  1.011 -99.9 -99.99 -9.99
2019/05/18 23:42 EDT    2.58   3.37 -999 -999 -999 -99.9  68.7 1017.3 16.4  1.011 -99.9 -99.99 -9.99
2019/05/18 23:48 EDT    2.52   3.33 -999 -999 -999 -99.9  68.7 1017.3 16.4  1.011 -99.9 -99.99 -9.99
2019/05/18 23:54 EDT    2.45   3.27 -999 -999 -999 -99.9  68.7 1017.3 16.4  1.011 -99.9 -99.99 -9.99
2019/05/19 00:00 EDT    2.38   3.18 -999 -999 -999 -99.9  68.7 1017.4 16.4  1.011 -99.9 -99.99 -9.99
2019/05/19 00:06 EDT    2.31   3.16 -999 -999 -999 -99.9  68.7 1017.4 16.3  1.011 -99.9 -99.99 -9.99
2019/05/19 00:12 EDT    2.23   3.05 -999 -999 -999 -99.9  69.1 1017.5 16.1  1.011 -99.9 -99.99 -9.99
2019/05/19 00:18 EDT    2.16   3.02 -999 -999 -999 -99.9  69.1 1017.6 16.1  1.011 -99.9 -99.99 -9.99
2019/05/19 00:24 EDT    2.08   2.93 -999 -999 -999 -99.9  69.3 1017.7 15.9  1.011 -99.9 -99.99 -9.99
2019/05/19 00:30 EDT    2.00   2.86 -999 -999 -999 -99.9  69.3 1017.7 16.0  1.011 -99.9 -99.99 -9.99
2019/05/19 00:36 EDT    1.92   2.79 -999 -999 -999 -99.9  69.3 1017.7 16.0  1.011 -99.9 -99.99 -9.99
2019/05/19 00:42 EDT    1.84   2.71 -999 -999 -999 -99.9  69.4 1017.6 15.9  1.011 -99.9 -99.99 -9.99
2019/05/19 00:48 EDT    1.76   2.64 -999 -999 -999 -99.9  69.3 1017.6 16.0  1.011 -99.9 -99.99 -9.99
2019/05/19 00:54 EDT    1.68   2.55 -999 -999 -999 -99.9  69.3 1017.6 16.0  1.011 -99.9 -99.99 -9.99
2019/05/19 01:00 EDT    1.59   2.47 -999 -999 -999 -99.9  69.3 1017.5 16.0  1.011 -99.9 -99.99 -9.99
2019/05/19 01:06 EDT    1.51   2.37 -999 -999 -999 -99.9  69.4 1017.4 15.9  1.011 -99.9 -99.99 -9.99
2019/05/19 01:12 EDT    1.43   2.29 -999 -999 -999 -99.9  69.4 1017.4 15.9  1.011 -99.9 -99.99 -9.99
2019/05/19 01:18 EDT    1.34   2.20 -999 -999 -999 -99.9  69.4 1017.3 15.8  1.011 -99.9 -99.99 -9.99
2019/05/19 01:24 EDT    1.26   2.12 -999 -999 -999 -99.9  69.6 1017.3 15.7  1.011 -99.9 -99.99 -9.99
2019/05/19 01:30 EDT    1.18   2.02 -999 -999 -999 -99.9  69.6 1017.2 15.7  1.011 -99.9 -99.99 -9.99
2019/05/19 01:36 EDT    1.09   1.95 -999 -999 -999 -99.9  69.6 1017.3 15.7  1.011 -99.9 -99.99 -9.99
2019/05/19 01:42 EDT    1.01   1.85 -999 -999 -999 -99.9  69.6 1017.2 15.7  1.011 -99.9 -99.99 -9.99
2019/05/19 01:48 EDT    0.93   1.79 -999 -999 -999 -99.9  69.8 1017.2 15.6  1.011 -99.9 -99.99 -9.99
2019/05/19 01:54 EDT    0.85   1.69 -999 -999 -999 -99.9  69.8 1017.1 15.6  1.011 -99.9 -99.99 -9.99
2019/05/19 02:00 EDT    0.78   1.62 -999 -999 -999 -99.9  69.8 1017.1 15.6  1.011 -99.9 -99.99 -9.99
2019/05/19 02:06 EDT    0.70   1.53 -999 -999 -999 -99.9  69.8 1017.0 15.6  1.011 -99.9 -99.99 -9.99
2019/05/19 02:12 EDT    0.63   1.46 -999 -999 -999 -99.9  69.8 1017.1 15.6  1.011 -99.9 -99.99 -9.99
2019/05/19 02:18 EDT    0.56   1.38 -999 -999 -999 -99.9  69.8 1017.0 15.5  1.011 -99.9 -99.99 -9.99
2019/05/19 02:24 EDT    0.49   1.30 -999 -999 -999 -99.9  69.8 1017.1 15.5  1.011 -99.9 -99.99 -9.99
2019/05/19 02:30 EDT    0.42   1.22 -999 -999 -999 -99.9  69.8 1017.0 15.5  1.011 -99.9 -99.99 -9.99
2019/05/19 02:36 EDT    0.36   1.15 -999 -999 -999 -99.9  69.8 1017.0 15.5  1.011 -99.9 -99.99 -9.99
2019/05/19 02:42 EDT    0.30   1.09 -999 -999 -999 -99.9  69.8 1017.0 15.6  1.011 -99.9 -99.99 -9.99
2019/05/19 02:48 EDT    0.24   1.04 -999 -999 -999 -99.9  69.8 1016.9 15.5  1.011 -99.9 -99.99 -9.99
2019/05/19 02:54 EDT    0.18   0.97 -999 -999 -999 -99.9  69.8 1016.9 15.6  1.011 -99.9 -99.99 -9.99
2019/05/19 03:00 EDT    0.13   0.93 -999 -999 -999 -99.9  69.8 1016.8 15.5  1.011 -99.9 -99.99 -9.99
2019/05/19 03:06 EDT    0.08   0.89 -999 -999 -999 -99.9  69.8 1016.9 15.5  1.011 -99.9 -99.99 -9.99
2019/05/19 03:12 EDT    0.04   0.85 -999 -999 -999 -99.9  70.0 1016.8 15.5  1.011 -99.9 -99.99 -9.99
2019/05/19 03:18 EDT   -0.00   0.81 -999 -999 -999 -99.9  69.8 1016.7 15.5  1.011 -99.9 -99.99 -9.99
2019/05/19 03:24 EDT   -0.04   0.78 -999 -999 -999 -99.9  69.8 1016.7 15.5  1.011 -99.9 -99.99 -9.99
2019/05/19 03:30 EDT   -0.07   0.75 -999 -999 -999 -99.9  69.8 1016.7 15.5  1.011 -99.9 -99.99 -9.99
2019/05/19 03:36 EDT   -0.10   0.72 -999 -999 -999 -99.9  69.8 1016.7 15.5  1.011 -99.9 -99.99 -9.99
2019/05/19 03:42 EDT   -0.13   0.69 -999 -999 -999 -99.9  69.8 1016.7 15.5  1.011 -99.9 -99.99 -9.99
2019/05/19 03:48 EDT   -0.15   0.68 -999 -999 -999 -99.9  69.8 1016.8 15.5  1.011 -99.9 -99.99 -9.99
2019/05/19 03:54 EDT   -0.17   0.59 -999 -999 -999 -99.9  69.8 1016.8 15.5  1.011 -99.9 -99.99 -9.99
2019/05/19 04:00 EDT   -0.19   0.64 -999 -999 -999 -99.9  69.8 1016.9 15.5  1.011 -99.9 -99.99 -9.99
2019/05/19 04:06 EDT   -0.19   0.62 -999 -999 -999 -99.9  69.8 1017.0 15.5  1.011 -99.9 -99.99 -9.99
2019/05/19 04:12 EDT   -0.20   0.62 -999 -999 -999 -99.9  69.8 1017.0 15.5  1.011 -99.9 -99.99 -9.99
2019/05/19 04:18 EDT   -0.20   0.60 -999 -999 -999 -99.9  69.8 1017.0 15.5  1.011 -99.9 -99.99 -9.99
2019/05/19 04:24 EDT   -0.20   0.60 -999 -999 -999 -99.9  69.8 1017.0 15.5  1.011 -99.9 -99.99 -9.99
2019/05/19 04:30 EDT   -0.19   0.62 -999 -999 -999 -99.9  69.8 1017.0 15.4  1.011 -99.9 -99.99 -9.99
2019/05/19 04:36 EDT   -0.18   0.64 -999 -999 -999 -99.9  69.8 1017.0 15.4  1.011 -99.9 -99.99 -9.99
2019/05/19 04:42 EDT   -0.17   0.61 -999 -999 -999 -99.9  69.8 1017.0 15.4  1.011 -99.9 -99.99 -9.99
2019/05/19 04:48 EDT   -0.15   0.65 -999 -999 -999 -99.9  69.8 1017.0 15.5  1.011 -99.9 -99.99 -9.99
2019/05/19 04:54 EDT   -0.13   0.68 -999 -999 -999 -99.9  69.8 1016.9 15.4  1.011 -99.9 -99.99 -9.99
2019/05/19 05:00 EDT   -0.10   0.72 -999 -999 -999 -99.9  69.8 1016.9 15.4  1.011 -99.9 -99.99 -9.99
2019/05/19 05:06 EDT   -0.07   0.73 -999 -999 -999 -99.9  69.8 1016.9 15.4  1.011 -99.9 -99.99 -9.99
2019/05/19 05:12 EDT   -0.04   0.73 -999 -999 -999 -99.9  69.8 1016.9 15.4  1.011 -99.9 -99.99 -9.99
2019/05/19 05:18 EDT   -0.00   0.78 -999 -999 -999 -99.9  69.8 1017.0 15.5  1.011 -99.9 -99.99 -9.99
2019/05/19 05:24 EDT    0.04   0.83 -999 -999 -999 -99.9  69.8 1017.0 15.4  1.011 -99.9 -99.99 -9.99
2019/05/19 05:30 EDT    0.08   0.85 -999 -999 -999 -99.9  69.8 1017.1 15.4  1.011 -99.9 -99.99 -9.99
2019/05/19 05:36 EDT    0.13   0.79 -999 -999 -999 -99.9  69.8 1017.1 15.4  1.011 -99.9 -99.99 -9.99
2019/05/19 05:42 EDT    0.18   0.92 -999 -999 -999 -99.9  69.8 1017.1 15.4  1.011 -99.9 -99.99 -9.99
2019/05/19 05:48 EDT    0.23   0.96 -999 -999 -999 -99.9  69.8 1017.2 15.4  1.011 -99.9 -99.99 -9.99
2019/05/19 05:54 EDT    0.28   1.01 -999 -999 -999 -99.9  69.8 1017.2 15.4  1.011 -99.9 -99.99 -9.99
2019/05/19 06:00 EDT    0.34   1.04 -999 -999 -999 -99.9  69.8 1017.3 15.5  1.011 -99.9 -99.99 -9.99
2019/05/19 06:06 EDT    0.40   1.12 -999 -999 -999 -99.9  69.8 1017.3 15.5  1.011 -99.9 -99.99 -9.99
2019/05/19 06:12 EDT    0.46   1.16 -999 -999 -999 -99.9  69.8 1017.3 15.4  1.011 -99.9 -99.99 -9.99
2019/05/19 06:18 EDT    0.53   1.20 -999 -999 -999 -99.9  69.8 1017.4 15.4  1.011 -99.9 -99.99 -9.99
2019/05/19 06:24 EDT    0.59   1.31 -999 -999 -999 -99.9  69.8 1017.4 15.4  1.011 -99.9 -99.99 -9.99
2019/05/19 06:30 EDT    0.66   1.36 -999 -999 -999 -99.9  69.8 1017.4 15.4  1.011 -99.9 -99.99 -9.99
2019/05/19 06:36 EDT    0.73   1.48 -999 -999 -999 -99.9  69.8 1017.5 15.4  1.011 -99.9 -99.99 -9.99
2019/05/19 06:42 EDT    0.80   1.48 -999 -999 -999 -99.9  69.8 1017.5 15.5  1.011 -99.9 -99.99 -9.99
2019/05/19 06:48 EDT    0.87   1.57 -999 -999 -999 -99.9  69.8 1017.5 15.4  1.011 -99.9 -99.99 -9.99
2019/05/19 06:54 EDT    0.94   1.65 -999 -999 -999 -99.9  69.8 1017.5 15.4  1.011 -99.9 -99.99 -9.99
2019/05/19 07:00 EDT    1.01   1.70 -999 -999 -999 -99.9  70.2 1017.5 15.1  1.010 -99.9 -99.99 -9.99
2019/05/19 07:06 EDT    1.08   1.82 -999 -999 -999 -99.9  70.2 1017.6 15.1  1.010 -99.9 -99.99 -9.99
2019/05/19 07:12 EDT    1.15   1.85 -999 -999 -999 -99.9  70.0 1017.6 15.2  1.010 -99.9 -99.99 -9.99
2019/05/19 07:18 EDT    1.23   1.96 -999 -999 -999 -99.9  70.2 1017.6 15.0  1.010 -99.9 -99.99 -9.99
2019/05/19 07:24 EDT    1.30   2.03 -999 -999 -999 -99.9  70.2 1017.7 15.0  1.010 -99.9 -99.99 -9.99
2019/05/19 07:30 EDT    1.37   2.12 -999 -999 -999 -99.9  70.2 1017.9 15.0  1.010 -99.9 -99.99 -9.99
2019/05/19 07:36 EDT    1.44   2.18 -999 -999 -999 -99.9  70.2 1018.0 15.0  1.010 -99.9 -99.99 -9.99
2019/05/19 07:42 EDT    1.51   2.26 -999 -999 -999 -99.9  70.0 1018.1 15.0  1.010 -99.9 -99.99 -9.99
2019/05/19 07:48 EDT    1.58   2.34 -999 -999 -999 -99.9  70.2 1018.1 15.0  1.010 -99.9 -99.99 -9.99
2019/05/19 07:54 EDT    1.65   2.41 -999 -999 -999 -99.9  70.2 1018.0 15.0  1.010 -99.9 -99.99 -9.99
2019/05/19 08:00 EDT    1.72   2.46 -999 -999 -999 -99.9  70.0 1018.0 15.0  1.010 -99.9 -99.99 -9.99
2019/05/19 08:06 EDT    1.78   2.55 -999 -999 -999 -99.9  70.0 1017.9 15.0  1.010 -99.9 -99.99 -9.99
2019/05/19 08:12 EDT    1.84   2.62 -999 -999 -999 -99.9  70.0 1018.0 15.1  1.010 -99.9 -99.99 -9.99
2019/05/19 08:18 EDT    1.91   2.68 -999 -999 -999 -99.9  70.0 1018.1 15.1  1.010 -99.9 -99.99 -9.99
2019/05/19 08:24 EDT    1.97   2.75 -999 -999 -999 -99.9  70.0 1018.0 15.0  1.010 -99.9 -99.99 -9.99
2019/05/19 08:30 EDT    2.02   2.81 -999 -999 -999 -99.9  70.0 1017.9 15.1  1.010 -99.9 -99.99 -9.99
2019/05/19 08:36 EDT    2.08   2.86 -999 -999 -999 -99.9  70.0 1017.9 15.1  1.010 -99.9 -99.99 -9.99
2019/05/19 08:42 EDT    2.13   2.92 -999 -999 -999 -99.9  70.0 1018.0 15.1  1.010 -99.9 -99.99 -9.99
2019/05/19 08:48 EDT    2.18   2.97 -999 -999 -999 -99.9  70.0 1018.0 15.0  1.010 -99.9 -99.99 -9.99
2019/05/19 08:54 EDT    2.23   3.02 -999 -999 -999 -99.9  70.2 1018.0 14.9  1.010 -99.9 -99.99 -9.99
2019/05/19 09:00 EDT    2.27   3.06 -999 -999 -999 -99.9  70.2 1018.1 14.9  1.010 -99.9 -99.99 -9.99
2019/05/19 09:06 EDT    2.32   3.11 -999 -999 -999 -99.9  70.2 1018.1 14.9  1.010 -99.9 -99.99 -9.99
2019/05/19 09:12 EDT    2.36   3.15 -999 -999 -999 -99.9  70.2 1018.1 15.0  1.010 -99.9 -99.99 -9.99
2019/05/19 09:18 EDT    2.39   3.18 -999 -999 -999 -99.9  70.2 1018.0 15.0  1.010 -99.9 -99.99 -9.99
2019/05/19 09:24 EDT    2.42   3.22 -999 -999 -999 -99.9  70.2 1018.0 15.0  1.010 -99.9 -99.99 -9.99
2019/05/19 09:30 EDT    2.45   3.24 -999 -999 -999 -99.9  70.3 1017.9 15.0  1.010 -99.9 -99.99 -9.99
2019/05/19 09:36 EDT    2.48   3.28 -999 -999 -999 -99.9  70.2 1017.8 15.0  1.010 -99.9 -99.99 -9.99
2019/05/19 09:42 EDT    2.50   3.30 -999 -999 -999 -99.9  70.2 1017.8 15.0  1.010 -99.9 -99.99 -9.99
2019/05/19 09:48 EDT    2.52   3.31 -999 -999 -999 -99.9  70.2 1017.8 15.0  1.010 -99.9 -99.99 -9.99
2019/05/19 09:54 EDT    2.54   3.32 -999 -999 -999 -99.9  70.2 1017.8 15.0  1.010 -99.9 -99.99 -9.99
2019/05/19 10:00 EDT    2.55   3.33 -999 -999 -999 -99.9  70.0 1017.9 15.2  1.010 -99.9 -99.99 -9.99
2019/05/19 10:06 EDT    2.56   3.31 -999 -999 -999 -99.9  70.0 1017.9 15.1  1.010 -99.9 -99.99 -9.99
2019/05/19 10:12 EDT    2.56   3.32 -999 -999 -999 -99.9  70.0 1017.9 15.2  1.010 -99.9 -99.99 -9.99
2019/05/19 10:18 EDT    2.57   3.31 -999 -999 -999 -99.9  70.0 1017.9 15.2  1.010 -99.9 -99.99 -9.99
2019/05/19 10:24 EDT    2.56   3.30 -999 -999 -999 -99.9  70.0 1017.8 15.2  1.010 -99.9 -99.99 -9.99
2019/05/19 10:30 EDT    2.56   3.28 -999 -999 -999 -99.9  70.0 1017.7 15.2  1.010 -99.9 -99.99 -9.99
2019/05/19 10:36 EDT    2.55   3.27 -999 -999 -999 -99.9  70.0 1017.7 15.2  1.010 -99.9 -99.99 -9.99
2019/05/19 10:42 EDT    2.54   3.26 -999 -999 -999 -99.9  70.0 1017.7 15.2  1.010 -99.9 -99.99 -9.99
2019/05/19 10:48 EDT    2.52   3.23 -999 -999 -999 -99.9  70.0 1017.7 15.3  1.010 -99.9 -99.99 -9.99
2019/05/19 10:54 EDT    2.50   3.21 -999 -999 -999 -99.9  70.0 1017.7 15.3  1.010 -99.9 -99.99 -9.99
2019/05/19 11:00 EDT    2.48   3.18 -999 -999 -999 -99.9  70.0 1017.7 15.3  1.010 -99.9 -99.99 -9.99
2019/05/19 11:06 EDT    2.45   3.15 -999 -999 -999 -99.9  70.0 1017.7 15.3  1.010 -99.9 -99.99 -9.99
2019/05/19 11:12 EDT    2.42   3.11 -999 -999 -999 -99.9  70.0 1017.6 15.3  1.010 -99.9 -99.99 -9.99
2019/05/19 11:18 EDT    2.39   3.07 -999 -999 -999 -99.9  70.0 1017.7 15.3  1.010 -99.9 -99.99 -9.99
2019/05/19 11:24 EDT    2.35   3.03 -999 -999 -999 -99.9  70.0 1017.7 15.2  1.010 -99.9 -99.99 -9.99
2019/05/19 11:30 EDT    2.31   2.99 -999 -999 -999 -99.9  70.0 1017.7 15.2  1.010 -99.9 -99.99 -9.99
2019/05/19 11:36 EDT    2.27   2.95 -999 -999 -999 -99.9  70.0 1017.6 15.2  1.010 -99.9 -99.99 -9.99
2019/05/19 11:42 EDT    2.23   2.92 -999 -999 -999 -99.9  70.0 1017.6 15.1  1.010 -99.9 -99.99 -9.99
2019/05/19 11:48 EDT    2.18   2.82 -999 -999 -999 -99.9  70.2 1017.5 15.1  1.010 -99.9 -99.99 -9.99
2019/05/19 11:54 EDT    2.13   2.82 -999 -999 -999 -99.9  70.0 1017.5 15.2  1.010 -99.9 -99.99 -9.99
2019/05/19 12:00 EDT    2.08   2.76 -999 -999 -999 -99.9  70.0 1017.4 15.2  1.010 -99.9 -99.99 -9.99
2019/05/19 12:06 EDT    2.02   2.71 -999 -999 -999 -99.9  70.0 1017.4 15.2  1.010 -99.9 -99.99 -9.99
2019/05/19 12:12 EDT    1.97   2.65 -999 -999 -999 -99.9  70.0 1017.3 15.2  1.010 -99.9 -99.99 -9.99
2019/05/19 12:18 EDT    1.91   2.61 -999 -999 -999 -99.9  70.0 1017.3 15.2  1.010 -99.9 -99.99 -9.99
2019/05/19 12:24 EDT    1.85   2.55 -999 -999 -999 -99.9  70.0 1017.2 15.3  1.010 -99.9 -99.99 -9.99
2019/05/19 12:30 EDT    1.78   2.48 -999 -999 -999 -99.9  70.0 1017.2 15.2  1.010 -99.9 -99.99 -9.99
2019/05/19 12:36 EDT    1.72   2.42 -999 -999 -999 -99.9  70.0 1017.1 15.3  1.010 -99.9 -99.99 -9.99
2019/05/19 12:42 EDT    1.65   2.36 -999 -999 -999 -99.9  69.8 1017.1 15.4  1.011 -99.9 -99.99 -9.99
2019/05/19 12:48 EDT    1.59   2.29 -999 -999 -999 -99.9  69.8 1017.1 15.5  1.011 -99.9 -99.99 -9.99
2019/05/19 12:54 EDT    1.52   2.22 -999 -999 -999 -99.9  70.0 1017.0 15.4  1.010 -99.9 -99.99 -9.99
2019/05/19 13:00 EDT    1.45   2.15 -999 -999 -999 -99.9  70.0 1016.9 15.4  1.010 -99.9 -99.99 -9.99
2019/05/19 13:06 EDT    1.38   2.08 -999 -999 -999 -99.9  70.0 1016.9 15.3  1.010 -99.9 -99.99 -9.99
2019/05/19 13:12 EDT    1.31   2.00 -999 -999 -999 -99.9  70.0 1016.9 15.3  1.010 -99.9 -99.99 -9.99
2019/05/19 13:18 EDT    1.24   1.93 -999 -999 -999 -99.9  69.8 1016.9 15.4  1.011 -99.9 -99.99 -9.99
2019/05/19 13:24 EDT    1.17   1.86 -999 -999 -999 -99.9  70.0 1016.9 15.4  1.010 -99.9 -99.99 -9.99
2019/05/19 13:30 EDT    1.10   1.79 -999 -999 -999 -99.9  69.8 1016.9 15.4  1.011 -99.9 -99.99 -9.99
2019/05/19 13:36 EDT    1.03   1.72 -999 -999 -999 -99.9  69.8 1016.9 15.4  1.011 -99.9 -99.99 -9.99
2019/05/19 13:42 EDT    0.96   1.65 -999 -999 -999 -99.9  69.8 1016.8 15.4  1.011 -99.9 -99.99 -9.99
2019/05/19 13:48 EDT    0.89   1.57 -999 -999 -999 -99.9  70.0 1016.8 15.4  1.010 -99.9 -99.99 -9.99
2019/05/19 13:54 EDT    0.82   1.50 -999 -999 -999 -99.9  70.2 1016.8 15.3  1.010 -99.9 -99.99 -9.99
2019/05/19 14:00 EDT    0.75   1.43 -999 -999 -999 -99.9  70.2 1016.8 15.3  1.010 -99.9 -99.99 -9.99
2019/05/19 14:06 EDT    0.69   1.37 -999 -999 -999 -99.9  70.2 1016.7 15.3  1.010 -99.9 -99.99 -9.99
2019/05/19 14:12 EDT    0.62   1.31 -999 -999 -999 -99.9  70.2 1016.6 15.3  1.010 -99.9 -99.99 -9.99
2019/05/19 14:18 EDT    0.56   1.25 -999 -999 -999 -99.9  70.2 1016.6 15.3  1.010 -99.9 -99.99 -9.99
2019/05/19 14:24 EDT    0.50   1.19 -999 -999 -999 -99.9  70.0 1016.6 15.4  1.011 -99.9 -99.99 -9.99
2019/05/19 14:30 EDT    0.44   1.15 -999 -999 -999 -99.9  70.0 1016.5 15.4  1.010 -99.9 -99.99 -9.99
2019/05/19 14:36 EDT    0.38   1.10 -999 -999 -999 -99.9  70.2 1016.5 15.3  1.010 -99.9 -99.99 -9.99
2019/05/19 14:42 EDT    0.33   1.04 -999 -999 -999 -99.9  70.0 1016.4 15.4  1.011 -99.9 -99.99 -9.99
2019/05/19 14:48 EDT    0.28   1.00 -999 -999 -999 -99.9  70.2 1016.3 15.3  1.010 -99.9 -99.99 -9.99
2019/05/19 14:54 EDT    0.23   0.96 -999 -999 -999 -99.9  70.2 1016.3 15.3  1.010 -99.9 -99.99 -9.99
2019/05/19 15:00 EDT    0.18   0.92 -999 -999 -999 -99.9  70.3 1016.2 15.3  1.010 -99.9 -99.99 -9.99
2019/05/19 15:06 EDT    0.13   0.88 -999 -999 -999 -99.9  70.5 1016.1 15.3  1.010 -99.9 -99.99 -9.99
2019/05/19 15:12 EDT    0.09   0.85 -999 -999 -999 -99.9  70.9 1016.0 15.2  1.010 -99.9 -99.99 -9.99
2019/05/19 15:18 EDT    0.05   0.82 -999 -999 -999 -99.9  70.9 1016.0 15.2  1.010 -99.9 -99.99 -9.99
2019/05/19 15:24 EDT    0.02   0.80 -999 -999 -999 -99.9  71.1 1016.0 15.2  1.010 -99.9 -99.99 -9.99
2019/05/19 15:30 EDT   -0.01   0.77 -999 -999 -999 -99.9  71.1 1015.9 15.2  1.010 -99.9 -99.99 -9.99
2019/05/19 15:36 EDT   -0.04   0.75 -999 -999 -999 -99.9  71.1 1015.8 15.2  1.010 -99.9 -99.99 -9.99
2019/05/19 15:42 EDT   -0.07   0.72 -999 -999 -999 -99.9  71.1 1015.7 15.2  1.010 -99.9 -99.99 -9.99
2019/05/19 15:48 EDT   -0.09   0.71 -999 -999 -999 -99.9  71.2 1015.6 15.2  1.010 -99.9 -99.99 -9.99
2019/05/19 15:54 EDT   -0.10   0.70 -999 -999 -999 -99.9  71.2 1015.5 15.2  1.010 -99.9 -99.99 -9.99
2019/05/19 16:00 EDT   -0.12   0.68 -999 -999 -999 -99.9  71.1 1015.4 15.2  1.010 -99.9 -99.99 -9.99
2019/05/19 16:06 EDT   -0.13   0.66 -999 -999 -999 -99.9  71.2 1015.3 15.2  1.010 -99.9 -99.99 -9.99
2019/05/19 16:12 EDT   -0.13   0.65 -999 -999 -999 -99.9  71.4 1015.2 15.2  1.010 -99.9 -99.99 -9.99
2019/05/19 16:18 EDT   -0.13   0.65 -999 -999 -999 -99.9  71.4 1015.2 15.2  1.010 -99.9 -99.99 -9.99
2019/05/19 16:24 EDT   -0.13   0.66 -999 -999 -999 -99.9  71.4 1015.0 15.2  1.010 -99.9 -99.99 -9.99
2019/05/19 16:30 EDT   -0.12   0.66 -999 -999 -999 -99.9  71.4 1015.0 15.2  1.010 -99.9 -99.99 -9.99
2019/05/19 16:36 EDT   -0.11   0.65 -999 -999 -999 -99.9  71.6 1015.0 15.2  1.010 -99.9 -99.99 -9.99
2019/05/19 16:42 EDT   -0.10   0.68 -999 -999 -999 -99.9  71.2 1015.0 15.2  1.010 -99.9 -99.99 -9.99
2019/05/19 16:48 EDT   -0.08   0.70 -999 -999 -999 -99.9  71.4 1014.9 15.2  1.010 -99.9 -99.99 -9.99
2019/05/19 16:54 EDT   -0.06   0.72 -999 -999 -999 -99.9  71.4 1014.9 15.2  1.010 -99.9 -99.99 -9.99
2019/05/19 17:00 EDT   -0.03   0.75 -999 -999 -999 -99.9  71.8 1014.8 15.1  1.010 -99.9 -99.99 -9.99
2019/05/19 17:06 EDT   -0.00   0.78 -999 -999 -999 -99.9  71.4 1014.8 15.1  1.010 -99.9 -99.99 -9.99
2019/05/19 17:12 EDT    0.03   0.81 -999 -999 -999 -99.9  71.8 1014.7 15.1  1.010 -99.9 -99.99 -9.99
2019/05/19 17:18 EDT    0.07   0.84 -999 -999 -999 -99.9  72.7 1014.7 15.1  1.010 -99.9 -99.99 -9.99
2019/05/19 17:24 EDT    0.11   0.88 -999 -999 -999 -99.9  72.9 1014.7 14.8  1.010 -99.9 -99.99 -9.99
2019/05/19 17:30 EDT    0.15   0.93 -999 -999 -999 -99.9  72.9 1014.7 14.7  1.010 -99.9 -99.99 -9.99
2019/05/19 17:36 EDT    0.20   0.98 -999 -999 -999 -99.9  72.9 1014.6 14.7  1.010 -99.9 -99.99 -9.99
2019/05/19 17:42 EDT    0.25   1.03 -999 -999 -999 -99.9  72.9 1014.5 14.7  1.010 -99.9 -99.99 -9.99
2019/05/19 17:48 EDT    0.31   1.08 -999 -999 -999 -99.9  72.9 1014.5 14.7  1.010 -99.9 -99.99 -9.99
2019/05/19 17:54 EDT    0.36   1.13 -999 -999 -999 -99.9  73.2 1014.6 14.4  1.009 -99.9 -99.99 -9.99
2019/05/19 18:00 EDT    0.42   1.18 -999 -999 -999 -99.9  73.6 1014.5 14.0  1.009 -99.9 -99.99 -9.99
2019/05/19 18:06 EDT    0.49   1.23 -999 -999 -999 -99.9  73.0 1014.5 14.5  1.009 -99.9 -99.99 -9.99
2019/05/19 18:12 EDT    0.55   1.29 -999 -999 -999 -99.9  73.4 1014.4 14.2  1.009 -99.9 -99.99 -9.99
2019/05/19 18:18 EDT    0.62   1.35 -999 -999 -999 -99.9  73.2 1014.5 14.3  1.009 -99.9 -99.99 -9.99
2019/05/19 18:24 EDT    0.69   1.42 -999 -999 -999 -99.9  73.2 1014.4 14.2  1.009 -99.9 -99.99 -9.99
2019/05/19 18:30 EDT    0.76   1.48 -999 -999 -999 -99.9  73.2 1014.4 14.2  1.009 -99.9 -99.99 -9.99
2019/05/19 18:36 EDT    0.83   1.55 -999 -999 -999 -99.9  73.2 1014.4 14.2  1.009 -99.9 -99.99 -9.99
2019/05/19 18:42 EDT    0.91   1.62 -999 -999 -999 -99.9  73.2 1014.3 14.2  1.009 -99.9 -99.99 -9.99
2019/05/19 18:48 EDT    0.98   1.70 -999 -999 -999 -99.9  73.2 1014.3 14.2  1.009 -99.9 -99.99 -9.99
2019/05/19 18:54 EDT    1.06   1.77 -999 -999 -999 -99.9  73.2 1014.3 14.2  1.009 -99.9 -99.99 -9.99
2019/05/19 19:00 EDT    1.14   1.85 -999 -999 -999 -99.9  73.2 1014.3 14.3  1.009 -99.9 -99.99 -9.99
2019/05/19 19:06 EDT    1.22   1.93 -999 -999 -999 -99.9  73.2 1014.4 14.3  1.009 -99.9 -99.99 -9.99
2019/05/19 19:12 EDT    1.30   2.01 -999 -999 -999 -99.9  73.2 1014.4 14.3  1.009 -99.9 -99.99 -9.99
2019/05/19 19:18 EDT    1.38   2.10 -999 -999 -999 -99.9  73.2 1014.4 14.3  1.009 -99.9 -99.99 -9.99
2019/05/19 19:24 EDT    1.46   2.19 -999 -999 -999 -99.9  73.2 1014.4 14.4  1.009 -99.9 -99.99 -9.99
2019/05/19 19:30 EDT    1.54   2.26 -999 -999 -999 -99.9  73.2 1014.5 14.3  1.009 -99.9 -99.99 -9.99
2019/05/19 19:36 EDT    1.62   2.34 -999 -999 -999 -99.9  73.4 1014.4 14.3  1.009 -99.9 -99.99 -9.99
2019/05/19 19:42 EDT    1.70   2.42 -999 -999 -999 -99.9  73.4 1014.4 14.3  1.009 -99.9 -99.99 -9.99
2019/05/19 19:48 EDT    1.78   2.48 -999 -999 -999 -99.9  73.4 1014.4 14.3  1.009 -99.9 -99.99 -9.99
2019/05/19 19:54 EDT    1.86   2.55 -999 -999 -999 -99.9  73.4 1014.4 14.3  1.009 -99.9 -99.99 -9.99
2019/05/19 20:00 EDT    1.93   2.62 -999 -999 -999 -99.9  73.4 1014.4 14.2  1.009 -99.9 -99.99 -9.99
2019/05/19 20:06 EDT    2.01   2.68 -999 -999 -999 -99.9  73.4 1014.4 14.3  1.009 -99.9 -99.99 -9.99
2019/05/19 20:12 EDT    2.09   2.75 -999 -999 -999 -99.9  73.2 1014.3 14.4  1.009 -99.9 -99.99 -9.99
2019/05/19 20:18 EDT    2.16   2.81 -999 -999 -999 -99.9  73.4 1014.4 14.4  1.009 -99.9 -99.99 -9.99
2019/05/19 20:24 EDT    2.23   2.88 -999 -999 -999 -99.9  73.0 1014.4 14.4  1.009 -99.9 -99.99 -9.99
2019/05/19 20:30 EDT    2.30   2.95 -999 -999 -999 -99.9  73.4 1014.5 14.5  1.009 -99.9 -99.99 -9.99
2019/05/19 20:36 EDT    2.37   2.98 -999 -999 -999 -99.9  73.2 1014.5 14.5  1.009 -99.9 -99.99 -9.99
2019/05/19 20:42 EDT    2.44   3.09 -999 -999 -999 -99.9  73.2 1014.5 14.6  1.009 -99.9 -99.99 -9.99
2019/05/19 20:48 EDT    2.50   3.16 -999 -999 -999 -99.9  73.2 1014.5 14.5  1.009 -99.9 -99.99 -9.99
2019/05/19 20:54 EDT    2.57   3.22 -999 -999 -999 -99.9  73.2 1014.6 14.5  1.009 -99.9 -99.99 -9.99
2019/05/19 21:00 EDT    2.62   3.26 -999 -999 -999 -99.9  73.2 1014.7 14.6  1.009 -99.9 -99.99 -9.99
2019/05/19 21:06 EDT    2.68   3.32 -999 -999 -999 -99.9  73.0 1014.7 14.7  1.010 -99.9 -99.99 -9.99
2019/05/19 21:12 EDT    2.73   3.35 -999 -999 -999 -99.9  73.0 1014.8 14.7  1.010 -99.9 -99.99 -9.99
2019/05/19 21:18 EDT    2.79   3.41 -999 -999 -999 -99.9  72.7 1014.9 14.9  1.010 -99.9 -99.99 -9.99
2019/05/19 21:24 EDT    2.83   3.46 -999 -999 -999 -99.9  73.0 1015.0 14.7  1.010 -99.9 -99.99 -9.99
2019/05/19 21:30 EDT    2.88   3.48 -999 -999 -999 -99.9  73.0 1015.0 14.7  1.010 -99.9 -99.99 -9.99
2019/05/19 21:36 EDT    2.92   3.53 -999 -999 -999 -99.9  73.0 1015.1 14.6  1.009 -99.9 -99.99 -9.99
2019/05/19 21:42 EDT    2.96   3.55 -999 -999 -999 -99.9  72.5 1015.1 14.9  1.010 -99.9 -99.99 -9.99
2019/05/19 21:48 EDT    2.99   3.58 -999 -999 -999 -99.9  72.3 1015.2 15.0  1.010 -99.9 -99.99 -9.99
2019/05/19 21:54 EDT    3.02   3.60 -999 -999 -999 -99.9  72.3 1015.2 15.0  1.010 -99.9 -99.99 -9.99
2019/05/19 22:00 EDT    3.05   3.62 -999 -999 -999 -99.9  72.3 1015.2 15.0  1.010 -99.9 -99.99 -9.99
2019/05/19 22:06 EDT    3.07   3.63 -999 -999 -999 -99.9  72.0 1015.3 15.1  1.010 -99.9 -99.99 -9.99
2019/05/19 22:12 EDT    3.09   3.64 -999 -999 -999 -99.9  72.0 1015.4 15.1  1.010 -99.9 -99.99 -9.99
2019/05/19 22:18 EDT    3.11   3.64 -999 -999 -999 -99.9  72.1 1015.5 15.0  1.010 -99.9 -99.99 -9.99
2019/05/19 22:24 EDT    3.12   3.64 -999 -999 -999 -99.9  72.5 1015.6 14.9  1.010 -99.9 -99.99 -9.99
2019/05/19 22:30 EDT    3.13   3.64 -999 -999 -999 -99.9  72.1 1015.7 15.0  1.010 -99.9 -99.99 -9.99
2019/05/19 22:36 EDT    3.13   3.62 -999 -999 -999 -99.9  72.0 1015.7 15.0  1.010 -99.9 -99.99 -9.99
2019/05/19 22:42 EDT    3.13   3.62 -999 -999 -999 -99.9  71.8 1015.7 15.1  1.010 -99.9 -99.99 -9.99
2019/05/19 22:48 EDT    3.13   3.60 -999 -999 -999 -99.9  71.6 1015.7 15.2  1.010 -99.9 -99.99 -9.99
2019/05/19 22:54 EDT    3.12   3.60 -999 -999 -999 -99.9  71.6 1015.7 15.2  1.010 -99.9 -99.99 -9.99
2019/05/19 23:00 EDT    3.11   3.57 -999 -999 -999 -99.9  71.2 1015.5 15.3  1.010 -99.9 -99.99 -9.99
2019/05/19 23:06 EDT    3.09   3.55 -999 -999 -999 -99.9  71.2 1015.5 15.3  1.010 -99.9 -99.99 -9.99
2019/05/19 23:12 EDT    3.08   3.53 -999 -999 -999 -99.9  71.4 1015.6 15.3  1.010 -99.9 -99.99 -9.99
2019/05/19 23:18 EDT    3.05   3.52 -999 -999 -999 -99.9  71.6 1015.6 15.2  1.010 -99.9 -99.99 -9.99
2019/05/19 23:24 EDT    3.03   3.49 -999 -999 -999 -99.9  70.9 1015.7 15.5  1.010 -99.9 -99.99 -9.99
2019/05/19 23:30 EDT    3.00   3.47 -999 -999 -999 -99.9  71.4 1015.7 15.3  1.010 -99.9 -99.99 -9.99
2019/05/19 23:36 EDT    2.96   3.43 -999 -999 -999 -99.9  71.4 1015.6 15.3  1.010 -99.9 -99.99 -9.99
2019/05/19 23:42 EDT    2.93   3.41 -999 -999 -999 -99.9  71.4 1015.6 15.2  1.010 -99.9 -99.99 -9.99
2019/05/19 23:48 EDT    2.89   3.34 -999 -999 -999 -99.9  72.0 1015.8 15.1  1.010 -99.9 -99.99 -9.99
2019/05/19 23:54 EDT    2.84   3.33 -999 -999 -999 -99.9  71.6 1015.8 15.2  1.010 -99.9 -99.99 -9.99
2019/05/20 00:00 EDT    2.80   3.27 -999 -999 -999 -99.9  71.8 1015.7 15.1  1.010 -99.9 -99.99 -9.99
2019/05/20 00:06 EDT    2.75   3.24 -999 -999 -999 -99.9  71.6 1015.7 15.2  1.010 -99.9 -99.99 -9.99
2019/05/20 00:12 EDT    2.70   3.18 -999 -999 -999 -99.9  71.4 1015.7 15.2  1.010 -99.9 -99.99 -9.99
2019/05/20 00:18 EDT    2.64   3.14 -999 -999 -999 -99.9  71.4 1015.7 15.3  1.010 -99.9 -99.99 -9.99
2019/05/20 00:24 EDT    2.58   3.07 -999 -999 -999 -99.9  71.4 1015.7 15.2  1.010 -99.9 -99.99 -9.99
2019/05/20 00:30 EDT    2.52   3.02 -999 -999 -999 -99.9  71.4 1015.6 15.2  1.010 -99.9 -99.99 -9.99
2019/05/20 00:36 EDT    2.46   2.95 -999 -999 -999 -99.9  71.2 1015.6 15.3  1.010 -99.9 -99.99 -9.99
2019/05/20 00:42 EDT    2.39   2.91 -999 -999 -999 -99.9  71.4 1015.6 15.2  1.010 -99.9 -99.99 -9.99
2019/05/20 00:48 EDT    2.32   2.85 -999 -999 -999 -99.9  71.8 1015.6 15.1  1.010 -99.9 -99.99 -9.99
2019/05/20 00:54 EDT    2.25   2.79 -999 -999 -999 -99.9  72.0 1015.6 15.0  1.010 -99.9 -99.99 -9.99
2019/05/20 01:00 EDT    2.18   2.74 -999 -999 -999 -99.9  72.0 1015.7 15.0  1.010 -99.9 -99.99 -9.99
2019/05/20 01:06 EDT    2.11   2.65 -999 -999 -999 -99.9  72.1 1015.7 14.9  1.010 -99.9 -99.99 -9.99
2019/05/20 01:12 EDT    2.03   2.59 -999 -999 -999 -99.9  72.1 1015.7 14.9  1.010 -99.9 -99.99 -9.99
2019/05/20 01:18 EDT    1.96   2.52 -999 -999 -999 -99.9  72.1 1015.7 14.9  1.010 -99.9 -99.99 -9.99
2019/05/20 01:24 EDT    1.88   2.46 -999 -999 -999 -99.9  72.0 1015.7 15.0  1.010 -99.9 -99.99 -9.99
2019/05/20 01:30 EDT    1.80   2.38 -999 -999 -999 -99.9  72.0 1015.7 15.0  1.010 -99.9 -99.99 -9.99
2019/05/20 01:36 EDT    1.72   2.30 -999 -999 -999 -99.9  72.0 1015.7 15.0  1.010 -99.9 -99.99 -9.99
2019/05/20 01:42 EDT    1.64   2.22 -999 -999 -999 -99.9  72.0 1015.8 15.0  1.010 -99.9 -99.99 -9.99
2019/05/20 01:48 EDT    1.56   2.14 -999 -999 -999 -99.9  72.0 1015.8 15.0  1.010 -99.9 -99.99 -9.99
2019/05/20 01:54 EDT    1.48   2.04 -999 -999 -999 -99.9  72.0 1015.8 15.0  1.010 -99.9 -99.99 -9.99
2019/05/20 02:00 EDT    1.40   1.96 -999 -999 -999 -99.9  72.0 1015.8 15.0  1.010 -99.9 -99.99 -9.99
2019/05/20 02:06 EDT    1.32   1.87 -999 -999 -999 -99.9  72.0 1015.7 15.0  1.010 -99.9 -99.99 -9.99
2019/05/20 02:12 EDT    1.24   1.80 -999 -999 -999 -99.9  72.3 1015.6 14.8  1.010 -99.9 -99.99 -9.99
2019/05/20 02:18 EDT    1.16   1.72 -999 -999 -999 -99.9  72.1 1015.6 14.9  1.010 -99.9 -99.99 -9.99
2019/05/20 02:24 EDT    1.08   1.64 -999 -999 -999 -99.9  72.1 1015.6 14.9  1.010 -99.9 -99.99 -9.99
2019/05/20 02:30 EDT    1.01   1.55 -999 -999 -999 -99.9  72.1 1015.6 14.9  1.010 -99.9 -99.99 -9.99
2019/05/20 02:36 EDT    0.93   1.48 -999 -999 -999 -99.9  72.1 1015.5 14.9  1.010 -99.9 -99.99 -9.99
2019/05/20 02:42 EDT    0.86   1.40 -999 -999 -999 -99.9  72.1 1015.5 14.9  1.010 -99.9 -99.99 -9.99
2019/05/20 02:48 EDT    0.78   1.32 -999 -999 -999 -99.9  72.3 1015.4 14.8  1.010 -99.9 -99.99 -9.99
2019/05/20 02:54 EDT    0.71   1.24 -999 -999 -999 -99.9  72.1 1015.4 14.9  1.010 -99.9 -99.99 -9.99
2019/05/20 03:00 EDT    0.64   1.18 -999 -999 -999 -99.9  72.1 1015.4 14.9  1.010 -99.9 -99.99 -9.99
2019/05/20 03:06 EDT    0.57   1.11 -999 -999 -999 -99.9  72.1 1015.3 14.9  1.010 -99.9 -99.99 -9.99
2019/05/20 03:12 EDT    0.51   1.04 -999 -999 -999 -99.9  72.1 1015.3 14.9  1.010 -99.9 -99.99 -9.99
2019/05/20 03:18 EDT    0.45   0.96 -999 -999 -999 -99.9  72.3 1015.3 14.8  1.010 -99.9 -99.99 -9.99
2019/05/20 03:24 EDT    0.39   0.91 -999 -999 -999 -99.9  72.3 1015.3 14.8  1.010 -99.9 -99.99 -9.99
2019/05/20 03:30 EDT    0.33   0.84 -999 -999 -999 -99.9  72.5 1015.4 14.8  1.010 -99.9 -99.99 -9.99
2019/05/20 03:36 EDT    0.27   0.79 -999 -999 -999 -99.9  72.3 1015.4 14.8  1.010 -99.9 -99.99 -9.99
2019/05/20 03:42 EDT    0.22   0.69 -999 -999 -999 -99.9  72.3 1015.5 14.8  1.010 -99.9 -99.99 -9.99
2019/05/20 03:48 EDT    0.17   0.70 -999 -999 -999 -99.9  72.3 1015.5 14.8  1.010 -99.9 -99.99 -9.99
2019/05/20 03:54 EDT    0.13   0.64 -999 -999 -999 -99.9  72.3 1015.5 14.8  1.010 -99.9 -99.99 -9.99
2019/05/20 04:00 EDT    0.09   0.59 -999 -999 -999 -99.9  72.3 1015.4 14.8  1.010 -99.9 -99.99 -9.99
2019/05/20 04:06 EDT    0.05   0.58 -999 -999 -999 -99.9  72.1 1015.4 14.9  1.010 -99.9 -99.99 -9.99
2019/05/20 04:12 EDT    0.01   0.51 -999 -999 -999 -99.9  72.3 1015.4 14.8  1.010 -99.9 -99.99 -9.99
2019/05/20 04:18 EDT   -0.02   0.49 -999 -999 -999 -99.9  72.3 1015.4 14.8  1.010 -99.9 -99.99 -9.99
2019/05/20 04:24 EDT   -0.05   0.48 -999 -999 -999 -99.9  72.3 1015.4 14.8  1.010 -99.9 -99.99 -9.99
2019/05/20 04:30 EDT   -0.07   0.43 -999 -999 -999 -99.9  72.1 1015.3 14.9  1.010 -99.9 -99.99 -9.99
2019/05/20 04:36 EDT   -0.09   0.45 -999 -999 -999 -99.9  72.1 1015.2 14.9  1.010 -99.9 -99.99 -9.99
2019/05/20 04:42 EDT   -0.11   0.38 -999 -999 -999 -99.9  72.1 1015.2 14.9  1.010 -99.9 -99.99 -9.99
2019/05/20 04:48 EDT   -0.12   0.36 -999 -999 -999 -99.9  72.1 1015.2 14.9  1.010 -99.9 -99.99 -9.99
2019/05/20 04:54 EDT   -0.13   0.36 -999 -999 -999 -99.9  72.1 1015.2 14.9  1.010 -99.9 -99.99 -9.99
2019/05/20 05:00 EDT   -0.13   0.33 -999 -999 -999 -99.9  72.1 1015.2 14.9  1.010 -99.9 -99.99 -9.99
2019/05/20 05:06 EDT   -0.13   0.35 -999 -999 -999 -99.9  72.1 1015.2 14.9  1.010 -99.9 -99.99 -9.99
2019/05/20 05:12 EDT   -0.13   0.31 -999 -999 -999 -99.9  72.1 1015.2 14.9  1.010 -99.9 -99.99 -9.99
2019/05/20 05:18 EDT   -0.12   0.29 -999 -999 -999 -99.9  72.1 1015.1 14.9  1.010 -99.9 -99.99 -9.99
2019/05/20 05:24 EDT   -0.11   0.34 -999 -999 -999 -99.9  72.0 1015.2 14.9  1.010 -99.9 -99.99 -9.99
2019/05/20 05:30 EDT   -0.09   0.33 -999 -999 -999 -99.9  72.1 1015.2 14.9  1.010 -99.9 -99.99 -9.99
2019/05/20 05:36 EDT   -0.08   0.34 -999 -999 -999 -99.9  72.0 1015.2 14.9  1.010 -99.9 -99.99 -9.99
2019/05/20 05:42 EDT   -0.05   0.37 -999 -999 -999 -99.9  72.0 1015.3 15.0  1.010 -99.9 -99.99 -9.99
2019/05/20 05:48 EDT   -0.03   0.42 -999 -999 -999 -99.9  72.0 1015.3 15.0  1.010 -99.9 -99.99 -9.99
2019/05/20 05:54 EDT    0.00   0.44 -999 -999 -999 -99.9  72.0 1015.3 15.0  1.010 -99.9 -99.99 -9.99
2019/05/20 06:00 EDT    0.04   0.46 -999 -999 -999 -99.9  71.8 1015.3 15.1  1.010 -99.9 -99.99 -9.99
2019/05/20 06:06 EDT    0.07   0.50 -999 -999 -999 -99.9  71.8 1015.4 15.1  1.010 -99.9 -99.99 -9.99
2019/05/20 06:12 EDT    0.11   0.50 -999 -999 -999 -99.9  71.8 1015.3 15.1  1.010 -99.9 -99.99 -9.99
2019/05/20 06:18 EDT    0.16   0.57 -999 -999 -999 -99.9  72.0 1015.4 15.0  1.010 -99.9 -99.99 -9.99
2019/05/20 06:24 EDT    0.20   0.57 -999 -999 -999 -99.9  71.8 1015.4 15.0  1.010 -99.9 -99.99 -9.99
2019/05/20 06:30 EDT    0.25   0.63 -999 -999 -999 -99.9  72.0 1015.4 15.0  1.010 -99.9 -99.99 -9.99
2019/05/20 06:36 EDT    0.30 -99.99 -999 -999 -999 -99.9 -99.9 -999.9 -9.9 -9.999 -99.9 -99.99 -9.99
2019/05/20 06:42 EDT    0.35 -99.99 -999 -999 -999 -99.9 -99.9 -999.9 -9.9 -9.999 -99.9 -99.99 -9.99
2019/05/20 06:48 EDT    0.41 -99.99 -999 -999 -999 -99.9 -99.9 -999.9 -9.9 -9.999 -99.9 -99.99 -9.99

Revised: 08/08/2018
NOAA / National Ocean Service
Web site owner: Center for Operational Oceanographic Products and Services